Observation data for Palo Duro Canyon State Park Rim on 11/16/2019      Previous  Date       Current Mesonet Observations  Soil Data  Daily Summary Page  Observations in Plain Language
KPD1 160600Z 18009KT 07/M03 A3016 RMK A01 T00681027  RH  050%=      5-min Rain = 0
KPD1 160601Z 19011KT 07/M03 A3016 RMK A01 T00681027  RH  051%=      5-min Rain = 0
KPD1 160602Z 19013KT 07/M03 A3016 RMK A01 T00681027  RH  051%=      5-min Rain = 0
KPD1 160603Z 19011KT 07/M03 A3016 RMK A01 T00681027  RH  051%=      5-min Rain = 0
KPD1 160604Z 18014KT 07/M03 A3016 RMK A01 T00681027  RH  051%=      5-min Rain = 0
KPD1 160605Z 19012G18KT 07/M03 A3016 RMK A01 T00691027  RH  051%=      5-min Rain = 0
KPD1 160606Z 18011KT 07/M03 A3016 RMK A01 T00691027  RH  050%=      5-min Rain = 0
KPD1 160607Z 19011KT 07/M03 A3016 RMK A01 T00691027  RH  050%=      5-min Rain = 0
KPD1 160608Z 18012KT 07/M03 A3016 RMK A01 T00691027  RH  050%=      5-min Rain = 0
KPD1 160609Z 19010G15KT 07/M03 A3016 RMK A01 T00691027  RH  050%=      5-min Rain = 0
KPD1 160610Z 19010KT 07/M03 A3016 RMK A01 T00711026  RH  050%=      5-min Rain = 0
KPD1 160611Z 19011G16KT 07/M03 A3016 RMK A01 T00711027  RH  050%=      5-min Rain = 0
KPD1 160612Z 19011KT 07/M03 A3016 RMK A01 T00711027  RH  050%=      5-min Rain = 0
KPD1 160613Z 18011G16KT 07/M03 A3016 RMK A01 T00711027  RH  050%=      5-min Rain = 0
KPD1 160614Z 19013G20KT 07/M03 A3016 RMK A01 T00701027  RH  050%=      5-min Rain = 0
KPD1 160615Z 18009KT 07/M03 A3016 RMK A01 T00711027  RH  050%=      5-min Rain = 0
KPD1 160616Z 19012G19KT 07/M03 A3016 RMK A01 T00701027  RH  050%=      5-min Rain = 0
KPD1 160617Z 18013G18KT 07/M03 A3016 RMK A01 T00701027  RH  050%=      5-min Rain = 0
KPD1 160618Z 18015KT 07/M03 A3016 RMK A01 T00711026  RH  050%=      5-min Rain = 0
KPD1 160619Z 18014KT 07/M03 A3016 RMK A01 T00721026  RH  050%=      5-min Rain = 0
KPD1 160620Z 19014G20KT 07/M03 A3016 RMK A01 T00721026  RH  049%=      5-min Rain = 0
KPD1 160621Z 19013KT 07/M03 A3016 RMK A01 T00731026  RH  049%=      5-min Rain = 0
KPD1 160622Z 18007KT 07/M03 A3016 RMK A01 T00741026  RH  049%=      5-min Rain = 0
KPD1 160623Z 19008KT 07/M03 A3016 RMK A01 T00731027  RH  049%=      5-min Rain = 0
KPD1 160624Z 18012KT 07/M03 A3016 RMK A01 T00711028  RH  049%=      5-min Rain = 0
KPD1 160625Z 18010KT 07/M03 A3016 RMK A01 T00711027  RH  050%=      5-min Rain = 0
KPD1 160626Z 18010KT 07/M03 A3016 RMK A01 T00711027  RH  050%=      5-min Rain = 0
KPD1 160627Z 18014KT 07/M03 A3016 RMK A01 T00701027  RH  050%=      5-min Rain = 0
KPD1 160628Z 18010KT 07/M03 A3016 RMK A01 T00711027  RH  050%=      5-min Rain = 0
KPD1 160629Z 19010KT 07/M03 A3015 RMK A01 T00711027  RH  050%=      5-min Rain = 0
KPD1 160630Z 18010KT 07/M03 A3015 RMK A01 T00711027  RH  050%=      5-min Rain = 0
KPD1 160631Z 18015KT 07/M03 A3015 RMK A01 T00701027  RH  050%=      5-min Rain = 0
KPD1 160632Z 19010KT 07/M03 A3015 RMK A01 T00711027  RH  050%=      5-min Rain = 0
KPD1 160633Z 18011KT 07/M03 A3015 RMK A01 T00711027  RH  050%=      5-min Rain = 0
KPD1 160634Z 18013KT 07/M03 A3015 RMK A01 T00701027  RH  050%=      5-min Rain = 0
KPD1 160635Z 18012G17KT 07/M03 A3015 RMK A01 T00711026  RH  050%=      5-min Rain = 0
KPD1 160636Z 18012KT 07/M03 A3015 RMK A01 T00721026  RH  050%=      5-min Rain = 0
KPD1 160637Z 18011G17KT 07/M03 A3015 RMK A01 T00711027  RH  050%=      5-min Rain = 0
KPD1 160638Z 19012KT 07/M03 A3015 RMK A01 T00711027  RH  050%=      5-min Rain = 0
KPD1 160639Z 20013KT 07/M03 A3015 RMK A01 T00711027  RH  050%=      5-min Rain = 0
KPD1 160640Z 18009G14KT 07/M03 A3015 RMK A01 T00711027  RH  050%=      5-min Rain = 0
KPD1 160641Z 18010KT 07/M03 A3015 RMK A01 T00701027  RH  050%=      5-min Rain = 0
KPD1 160642Z 19010KT 07/M03 A3015 RMK A01 T00691027  RH  050%=      5-min Rain = 0
KPD1 160643Z 19010KT 07/M03 A3015 RMK A01 T00681027  RH  050%=      5-min Rain = 0
KPD1 160644Z 19014G20KT 07/M03 A3015 RMK A01 T00681027  RH  051%=      5-min Rain = 0
KPD1 160645Z 19012KT 07/M03 A3015 RMK A01 T00691026  RH  051%=      5-min Rain = 0
KPD1 160646Z 19008KT 07/M03 A3015 RMK A01 T00701026  RH  050%=      5-min Rain = 0
KPD1 160647Z 18010KT 07/M03 A3015 RMK A01 T00701027  RH  050%=      5-min Rain = 0
KPD1 160648Z 19010KT 07/M03 A3015 RMK A01 T00691027  RH  050%=      5-min Rain = 0
KPD1 160649Z 18013KT 07/M03 A3015 RMK A01 T00691027  RH  050%=      5-min Rain = 0
KPD1 160650Z 19011G16KT 07/M03 A3015 RMK A01 T00691027  RH  050%=      5-min Rain = 0
KPD1 160651Z 18011G19KT 07/M03 A3015 RMK A01 T00691027  RH  050%=      5-min Rain = 0
KPD1 160652Z 18010KT 07/M03 A3015 RMK A01 T00711026  RH  050%=      5-min Rain = 0
KPD1 160653Z 19008KT 07/M03 A3015 RMK A01 T00701027  RH  050%=      5-min Rain = 0
KPD1 160654Z 20012KT 07/M03 A3015 RMK A01 T00691027  RH  050%=      5-min Rain = 0
KPD1 160655Z 18012KT 07/M03 A3015 RMK A01 T00691027  RH  051%=      5-min Rain = 0
KPD1 160656Z 18011KT 07/M03 A3015 RMK A01 T00691026  RH  051%=      5-min Rain = 0
KPD1 160657Z 18011KT 07/M03 A3015 RMK A01 T00701026  RH  051%=      5-min Rain = 0
KPD1 160658Z 19016G22KT 07/M03 A3015 RMK A01 T00701026  RH  050%=      5-min Rain = 0
KPD1 160659Z 18010G17KT 07/M03 A3015 RMK A01 T00721025  RH  050%=      5-min Rain = 0
KPD1 160700Z 19012G17KT 07/M03 A3015 RMK A01 T00731025  RH  050%=      5-min Rain = 0
KPD1 160701Z 19009KT 07/M03 A3015 RMK A01 T00731026  RH  049%=      5-min Rain = 0
KPD1 160702Z 17006KT 07/M03 A3015 RMK A01 T00721026  RH  050%=      5-min Rain = 0
KPD1 160703Z 18008KT 07/M03 A3015 RMK A01 T00711027  RH  050%=      5-min Rain = 0
KPD1 160704Z 20010KT 07/M03 A3015 RMK A01 T00691027  RH  050%=      5-min Rain = 0
KPD1 160705Z 17010G15KT 07/M03 A3014 RMK A01 T00691026  RH  050%=      5-min Rain = 0
KPD1 160706Z 19013G21KT 07/M03 A3014 RMK A01 T00711025  RH  050%=      5-min Rain = 0
KPD1 160707Z 19011G16KT 07/M03 A3015 RMK A01 T00731025  RH  050%=      5-min Rain = 0
KPD1 160708Z 18009G14KT 07/M03 A3014 RMK A01 T00731026  RH  050%=      5-min Rain = 0
KPD1 160709Z 19009KT 07/M03 A3014 RMK A01 T00731026  RH  050%=      5-min Rain = 0
KPD1 160710Z 19012KT 07/M03 A3014 RMK A01 T00721026  RH  050%=      5-min Rain = 0
KPD1 160711Z 21008KT 07/M03 A3014 RMK A01 T00721026  RH  050%=      5-min Rain = 0
KPD1 160712Z 19007KT 07/M03 A3014 RMK A01 T00721026  RH  050%=      5-min Rain = 0
KPD1 160713Z 20006KT 07/M03 A3014 RMK A01 T00711026  RH  050%=      5-min Rain = 0
KPD1 160714Z 19006KT 07/M03 A3014 RMK A01 T00701027  RH  050%=      5-min Rain = 0
KPD1 160715Z 19009KT 07/M03 A3014 RMK A01 T00691027  RH  050%=      5-min Rain = 0
KPD1 160716Z 18009KT 07/M03 A3014 RMK A01 T00691026  RH  051%=      5-min Rain = 0
KPD1 160717Z 19008KT 07/M03 A3014 RMK A01 T00701026  RH  051%=      5-min Rain = 0
KPD1 160718Z 19010KT 07/M03 A3014 RMK A01 T00691026  RH  051%=      5-min Rain = 0
KPD1 160719Z 19011KT 07/M03 A3014 RMK A01 T00701026  RH  051%=      5-min Rain = 0
KPD1 160720Z 18008KT 07/M03 A3014 RMK A01 T00701025  RH  050%=      5-min Rain = 0
KPD1 160721Z 20010KT 07/M03 A3014 RMK A01 T00701026  RH  050%=      5-min Rain = 0
KPD1 160722Z 20010G16KT 07/M03 A3014 RMK A01 T00701026  RH  050%=      5-min Rain = 0
KPD1 160723Z 18010G16KT 07/M03 A3014 RMK A01 T00701026  RH  051%=      5-min Rain = 0
KPD1 160724Z 19012KT 07/M03 A3014 RMK A01 T00691026  RH  051%=      5-min Rain = 0
KPD1 160725Z 18008KT 07/M03 A3014 RMK A01 T00691026  RH  051%=      5-min Rain = 0
KPD1 160726Z 19012KT 07/M03 A3014 RMK A01 T00701026  RH  051%=      5-min Rain = 0
KPD1 160727Z 18011KT 07/M03 A3014 RMK A01 T00691026  RH  051%=      5-min Rain = 0
KPD1 160728Z 19010KT 07/M03 A3014 RMK A01 T00691026  RH  051%=      5-min Rain = 0
KPD1 160729Z 20011KT 07/M03 A3013 RMK A01 T00691026  RH  051%=      5-min Rain = 0
KPD1 160730Z 20011KT 07/M03 A3014 RMK A01 T00691026  RH  051%=      5-min Rain = 0
KPD1 160731Z 19012KT 07/M03 A3013 RMK A01 T00681026  RH  051%=      5-min Rain = 0
KPD1 160732Z 20012G18KT 07/M03 A3013 RMK A01 T00671027  RH  051%=      5-min Rain = 0
KPD1 160733Z 19013G18KT 07/M03 A3013 RMK A01 T00671026  RH  051%=      5-min Rain = 0
KPD1 160734Z 19012KT 07/M03 A3013 RMK A01 T00681026  RH  051%=      5-min Rain = 0
KPD1 160735Z 19011KT 07/M03 A3013 RMK A01 T00681026  RH  051%=      5-min Rain = 0
KPD1 160736Z 19013KT 07/M03 A3013 RMK A01 T00681026  RH  051%=      5-min Rain = 0
KPD1 160737Z 20012KT 07/M03 A3013 RMK A01 T00671026  RH  051%=      5-min Rain = 0
KPD1 160738Z 19010KT 07/M03 A3013 RMK A01 T00671026  RH  051%=      5-min Rain = 0
KPD1 160739Z 19008KT 07/M03 A3013 RMK A01 T00661026  RH  052%=      5-min Rain = 0
KPD1 160740Z 18011G16KT 07/M03 A3013 RMK A01 T00661026  RH  052%=      5-min Rain = 0
KPD1 160741Z 19013KT 07/M03 A3013 RMK A01 T00671025  RH  052%=      5-min Rain = 0
KPD1 160742Z 19013G18KT 07/M03 A3013 RMK A01 T00671025  RH  052%=      5-min Rain = 0
KPD1 160743Z 20011KT 07/M03 A3013 RMK A01 T00681025  RH  051%=      5-min Rain = 0
KPD1 160744Z 19013KT 07/M03 A3013 RMK A01 T00681025  RH  051%=      5-min Rain = 0
KPD1 160745Z 19012KT 07/M03 A3013 RMK A01 T00681025  RH  051%=      5-min Rain = 0
KPD1 160746Z 19011KT 07/M03 A3013 RMK A01 T00681026  RH  051%=      5-min Rain = 0
KPD1 160747Z 19013KT 07/M03 A3013 RMK A01 T00681025  RH  051%=      5-min Rain = 0
KPD1 160748Z 19012KT 07/M03 A3013 RMK A01 T00681025  RH  051%=      5-min Rain = 0
KPD1 160749Z 19010KT 07/M03 A3013 RMK A01 T00691025  RH  051%=      5-min Rain = 0
KPD1 160750Z 19013G18KT 07/M03 A3013 RMK A01 T00691025  RH  051%=      5-min Rain = 0
KPD1 160751Z 19013KT 07/M03 A3013 RMK A01 T00691025  RH  051%=      5-min Rain = 0
KPD1 160752Z 20012G17KT 07/M03 A3013 RMK A01 T00701025  RH  051%=      5-min Rain = 0
KPD1 160753Z 18010G15KT 07/M03 A3013 RMK A01 T00691025  RH  051%=      5-min Rain = 0
KPD1 160754Z 20009KT 07/M03 A3013 RMK A01 T00691026  RH  051%=      5-min Rain = 0
KPD1 160755Z 20010KT 07/M03 A3013 RMK A01 T00681026  RH  051%=      5-min Rain = 0
KPD1 160756Z 20012G18KT 07/M03 A3013 RMK A01 T00681025  RH  051%=      5-min Rain = 0
KPD1 160757Z 20014KT 07/M03 A3013 RMK A01 T00681025  RH  052%=      5-min Rain = 0
KPD1 160758Z 19011KT 07/M03 A3013 RMK A01 T00681025  RH  052%=      5-min Rain = 0
KPD1 160759Z 19011KT 07/M03 A3013 RMK A01 T00681025  RH  051%=      5-min Rain = 0
KPD1 160800Z 20010KT 07/M02 A3013 RMK A01 T00691024  RH  051%=      5-min Rain = 0
KPD1 160801Z 20010G17KT 07/M03 A3013 RMK A01 T00691025  RH  051%=      5-min Rain = 0
KPD1 160802Z 20010KT 07/M03 A3013 RMK A01 T00681025  RH  051%=      5-min Rain = 0
KPD1 160803Z 20010KT 07/M03 A3013 RMK A01 T00681025  RH  051%=      5-min Rain = 0
KPD1 160804Z 20010KT 07/M03 A3013 RMK A01 T00681025  RH  052%=      5-min Rain = 0
KPD1 160805Z 21012KT 07/M03 A3013 RMK A01 T00671025  RH  052%=      5-min Rain = 0
KPD1 160806Z 20012KT 07/M03 A3013 RMK A01 T00681025  RH  052%=      5-min Rain = 0
KPD1 160807Z 20010KT 07/M03 A3013 RMK A01 T00681025  RH  052%=      5-min Rain = 0
KPD1 160808Z 20011KT 07/M02 A3013 RMK A01 T00681024  RH  052%=      5-min Rain = 0
KPD1 160809Z 21010KT 07/M03 A3013 RMK A01 T00681025  RH  052%=      5-min Rain = 0
KPD1 160810Z 21011KT 07/M03 A3013 RMK A01 T00671025  RH  052%=      5-min Rain = 0
KPD1 160811Z 20011KT 07/M03 A3013 RMK A01 T00671025  RH  052%=      5-min Rain = 0
KPD1 160812Z 21010KT 07/M03 A3013 RMK A01 T00671025  RH  052%=      5-min Rain = 0
KPD1 160813Z 20011KT 07/M03 A3013 RMK A01 T00671025  RH  052%=      5-min Rain = 0
KPD1 160814Z 20011KT 07/M03 A3013 RMK A01 T00671025  RH  052%=      5-min Rain = 0
KPD1 160815Z 20011KT 07/M03 A3013 RMK A01 T00671025  RH  052%=      5-min Rain = 0
KPD1 160816Z 19012KT 07/M02 A3013 RMK A01 T00671024  RH  052%=      5-min Rain = 0
KPD1 160817Z 20008KT 07/M02 A3013 RMK A01 T00671024  RH  052%=      5-min Rain = 0
KPD1 160818Z 21011KT 07/M03 A3013 RMK A01 T00671025  RH  052%=      5-min Rain = 0
KPD1 160819Z 20011KT 07/M03 A3013 RMK A01 T00671025  RH  052%=      5-min Rain = 0
KPD1 160820Z 19012KT 07/M03 A3013 RMK A01 T00661025  RH  052%=      5-min Rain = 0
KPD1 160821Z 20010KT 07/M02 A3013 RMK A01 T00671024  RH  052%=      5-min Rain = 0
KPD1 160822Z 20012KT 07/M03 A3013 RMK A01 T00661025  RH  052%=      5-min Rain = 0
KPD1 160823Z 19011G16KT 07/M02 A3013 RMK A01 T00671024  RH  052%=      5-min Rain = 0
KPD1 160824Z 20013G19KT 07/M02 A3013 RMK A01 T00671024  RH  052%=      5-min Rain = 0
KPD1 160825Z 20013G18KT 07/M02 A3013 RMK A01 T00671024  RH  052%=      5-min Rain = 0
KPD1 160826Z 20010KT 07/M02 A3013 RMK A01 T00681024  RH  052%=      5-min Rain = 0
KPD1 160827Z 20012KT 07/M02 A3013 RMK A01 T00681024  RH  052%=      5-min Rain = 0
KPD1 160828Z 20012G17KT 07/M02 A3013 RMK A01 T00681024  RH  052%=      5-min Rain = 0
KPD1 160829Z 20010G15KT 07/M02 A3013 RMK A01 T00691024  RH  052%=      5-min Rain = 0
KPD1 160830Z 20012KT 07/M02 A3013 RMK A01 T00691024  RH  052%=      5-min Rain = 0
KPD1 160831Z 21013KT 07/M02 A3013 RMK A01 T00691024  RH  052%=      5-min Rain = 0
KPD1 160832Z 19010G15KT 07/M02 A3013 RMK A01 T00681024  RH  052%=      5-min Rain = 0
KPD1 160833Z 19011KT 07/M02 A3013 RMK A01 T00681024  RH  052%=      5-min Rain = 0
KPD1 160834Z 20010KT 07/M02 A3013 RMK A01 T00681024  RH  052%=      5-min Rain = 0
KPD1 160835Z 20010KT 07/M02 A3013 RMK A01 T00681024  RH  052%=      5-min Rain = 0
KPD1 160836Z 20011G16KT 07/M02 A3013 RMK A01 T00681024  RH  052%=      5-min Rain = 0
KPD1 160837Z 20012KT 07/M02 A3013 RMK A01 T00681024  RH  052%=      5-min Rain = 0
KPD1 160838Z 20013KT 07/M02 A3012 RMK A01 T00681024  RH  052%=      5-min Rain = 0
KPD1 160839Z 20009KT 07/M02 A3013 RMK A01 T00681024  RH  052%=      5-min Rain = 0
KPD1 160840Z 19012KT 07/M02 A3012 RMK A01 T00671024  RH  052%=      5-min Rain = 0
KPD1 160841Z 20012G18KT 07/M03 A3012 RMK A01 T00671025  RH  052%=      5-min Rain = 0
KPD1 160842Z 20012KT 07/M02 A3012 RMK A01 T00671024  RH  052%=      5-min Rain = 0
KPD1 160843Z 20010G16KT 07/M02 A3012 RMK A01 T00661024  RH  052%=      5-min Rain = 0
KPD1 160844Z 19014KT 07/M03 A3012 RMK A01 T00651025  RH  053%=      5-min Rain = 0
KPD1 160845Z 20010KT 07/M02 A3012 RMK A01 T00651024  RH  053%=      5-min Rain = 0
KPD1 160846Z 20011KT 07/M02 A3012 RMK A01 T00651024  RH  053%=      5-min Rain = 0
KPD1 160847Z 20010KT 07/M02 A3012 RMK A01 T00651024  RH  053%=      5-min Rain = 0
KPD1 160848Z 20013KT 06/M03 A3012 RMK A01 T00641025  RH  053%=      5-min Rain = 0
KPD1 160849Z 20011G16KT 06/M03 A3012 RMK A01 T00641025  RH  053%=      5-min Rain = 0
KPD1 160850Z 20011KT 06/M02 A3012 RMK A01 T00641024  RH  053%=      5-min Rain = 0
KPD1 160851Z 21012KT 06/M03 A3012 RMK A01 T00631025  RH  053%=      5-min Rain = 0
KPD1 160852Z 20012G17KT 06/M02 A3012 RMK A01 T00641024  RH  053%=      5-min Rain = 0
KPD1 160853Z 19014KT 06/M02 A3012 RMK A01 T00641024  RH  053%=      5-min Rain = 0
KPD1 160854Z 20013KT 07/M02 A3012 RMK A01 T00661023  RH  053%=      5-min Rain = 0
KPD1 160855Z 20012KT 07/M02 A3012 RMK A01 T00651024  RH  053%=      5-min Rain = 0
KPD1 160856Z 20010KT 07/M02 A3012 RMK A01 T00651024  RH  053%=      5-min Rain = 0
KPD1 160857Z 19011KT 07/M02 A3012 RMK A01 T00651023  RH  053%=      5-min Rain = 0
KPD1 160858Z 19011KT 07/M02 A3012 RMK A01 T00651023  RH  053%=      5-min Rain = 0
KPD1 160859Z 19010KT 07/M02 A3012 RMK A01 T00651023  RH  053%=      5-min Rain = 0
KPD1 160900Z 19011KT 06/M02 A3012 RMK A01 T00641023  RH  053%=      5-min Rain = 0
KPD1 160901Z 19010KT 06/M02 A3012 RMK A01 T00641023  RH  054%=      5-min Rain = 0
KPD1 160902Z 19010G16KT 06/M02 A3012 RMK A01 T00641024  RH  054%=      5-min Rain = 0
KPD1 160903Z 19014G20KT 06/M02 A3012 RMK A01 T00641023  RH  054%=      5-min Rain = 0
KPD1 160904Z 18013KT 06/M02 A3012 RMK A01 T00641023  RH  054%=      5-min Rain = 0
KPD1 160905Z 19010G15KT 07/M02 A3012 RMK A01 T00651022  RH  054%=      5-min Rain = 0
KPD1 160906Z 20014KT 07/M02 A3012 RMK A01 T00651023  RH  053%=      5-min Rain = 0
KPD1 160907Z 18012KT 07/M02 A3012 RMK A01 T00661022  RH  053%=      5-min Rain = 0
KPD1 160908Z 20012KT 07/M02 A3012 RMK A01 T00661023  RH  053%=      5-min Rain = 0
KPD1 160909Z 20010KT 07/M02 A3012 RMK A01 T00661023  RH  053%=      5-min Rain = 0
KPD1 160910Z 19012KT 07/M02 A3012 RMK A01 T00651023  RH  053%=      5-min Rain = 0
KPD1 160911Z 20012KT 07/M02 A3011 RMK A01 T00651022  RH  054%=      5-min Rain = 0
KPD1 160912Z 20013KT 07/M02 A3011 RMK A01 T00651023  RH  054%=      5-min Rain = 0
KPD1 160913Z 19012KT 07/M02 A3011 RMK A01 T00651023  RH  054%=      5-min Rain = 0
KPD1 160914Z 20012KT 07/M02 A3011 RMK A01 T00651023  RH  054%=      5-min Rain = 0
KPD1 160915Z 20013G18KT 07/M02 A3011 RMK A01 T00651022  RH  054%=      5-min Rain = 0
KPD1 160916Z 19012KT 07/M02 A3011 RMK A01 T00651022  RH  054%=      5-min Rain = 0
KPD1 160917Z 18009KT 07/M02 A3011 RMK A01 T00651022  RH  054%=      5-min Rain = 0
KPD1 160918Z 19011KT 07/M02 A3011 RMK A01 T00651022  RH  054%=      5-min Rain = 0
KPD1 160919Z 19011G18KT 07/M02 A3011 RMK A01 T00651023  RH  054%=      5-min Rain = 0
KPD1 160920Z 20012KT 07/M02 A3011 RMK A01 T00651022  RH  054%=      5-min Rain = 0
KPD1 160921Z 21012G17KT 07/M02 A3011 RMK A01 T00651022  RH  054%=      5-min Rain = 0
KPD1 160922Z 19009G14KT 07/M02 A3011 RMK A01 T00651022  RH  054%=      5-min Rain = 0
KPD1 160923Z 21010KT 07/M02 A3011 RMK A01 T00651022  RH  054%=      5-min Rain = 0
KPD1 160924Z 19009KT 06/M02 A3011 RMK A01 T00641022  RH  054%=      5-min Rain = 0
KPD1 160925Z 19009KT 06/M02 A3011 RMK A01 T00641022  RH  054%=      5-min Rain = 0
KPD1 160926Z 20012KT 07/M02 A3011 RMK A01 T00651022  RH  054%=      5-min Rain = 0
KPD1 160927Z 19011G16KT 06/M02 A3011 RMK A01 T00641022  RH  054%=      5-min Rain = 0
KPD1 160928Z 20010KT 06/M02 A3011 RMK A01 T00641022  RH  054%=      5-min Rain = 0
KPD1 160929Z 19009KT 06/M02 A3011 RMK A01 T00641022  RH  054%=      5-min Rain = 0
KPD1 160930Z 19010G15KT 06/M02 A3011 RMK A01 T00641022  RH  054%=      5-min Rain = 0
KPD1 160931Z 20010KT 06/M02 A3011 RMK A01 T00641022  RH  054%=      5-min Rain = 0
KPD1 160932Z 20011KT 07/M02 A3011 RMK A01 T00651021  RH  054%=      5-min Rain = 0
KPD1 160933Z 19009KT 07/M02 A3011 RMK A01 T00651022  RH  054%=      5-min Rain = 0
KPD1 160934Z 20010KT 07/M02 A3011 RMK A01 T00651021  RH  054%=      5-min Rain = 0
KPD1 160935Z 20010G16KT 07/M02 A3011 RMK A01 T00651022  RH  054%=      5-min Rain = 0
KPD1 160936Z 20009G15KT 07/M02 A3011 RMK A01 T00651021  RH  054%=      5-min Rain = 0
KPD1 160937Z 20012KT 07/M02 A3011 RMK A01 T00651021  RH  054%=      5-min Rain = 0
KPD1 160938Z 20011G16KT 07/M02 A3011 RMK A01 T00651021  RH  054%=      5-min Rain = 0
KPD1 160939Z 20009G14KT 07/M02 A3011 RMK A01 T00661020  RH  054%=      5-min Rain = 0
KPD1 160940Z 20013G19KT 07/M02 A3011 RMK A01 T00661021  RH  054%=      5-min Rain = 0
KPD1 160941Z 20014G19KT 07/M02 A3011 RMK A01 T00651021  RH  054%=      5-min Rain = 0
KPD1 160942Z 20011KT 07/M02 A3011 RMK A01 T00651021  RH  054%=      5-min Rain = 0
KPD1 160943Z 19011KT 07/M02 A3011 RMK A01 T00651021  RH  054%=      5-min Rain = 0
KPD1 160944Z 20011KT 06/M02 A3011 RMK A01 T00641021  RH  054%=      5-min Rain = 0
KPD1 160945Z 20011G16KT 06/M02 A3011 RMK A01 T00641021  RH  054%=      5-min Rain = 0
KPD1 160946Z 20012G19KT 07/M02 A3011 RMK A01 T00651021  RH  054%=      5-min Rain = 0
KPD1 160947Z 20010KT 06/M02 A3011 RMK A01 T00641021  RH  054%=      5-min Rain = 0
KPD1 160948Z 20010G15KT 06/M02 A3011 RMK A01 T00641021  RH  054%=      5-min Rain = 0
KPD1 160949Z 19011KT 06/M02 A3011 RMK A01 T00641021  RH  055%=      5-min Rain = 0
KPD1 160950Z 19013G19KT 06/M02 A3011 RMK A01 T00641021  RH  055%=      5-min Rain = 0
KPD1 160951Z 20010KT 06/M02 A3011 RMK A01 T00641021  RH  055%=      5-min Rain = 0
KPD1 160952Z 19009G15KT 06/M02 A3011 RMK A01 T00641021  RH  055%=      5-min Rain = 0
KPD1 160953Z 19013G18KT 06/M02 A3011 RMK A01 T00631021  RH  055%=      5-min Rain = 0
KPD1 160954Z 20010KT 06/M02 A3011 RMK A01 T00631020  RH  055%=      5-min Rain = 0
KPD1 160955Z 19010KT 06/M02 A3011 RMK A01 T00631020  RH  055%=      5-min Rain = 0
KPD1 160956Z 21011KT 06/M02 A3011 RMK A01 T00631020  RH  055%=      5-min Rain = 0
KPD1 160957Z 19009G15KT 06/M02 A3011 RMK A01 T00641020  RH  055%=      5-min Rain = 0
KPD1 160958Z 18008G16KT 06/M02 A3011 RMK A01 T00631021  RH  055%=      5-min Rain = 0
KPD1 160959Z 18009G15KT 06/M02 A3011 RMK A01 T00621021  RH  055%=      5-min Rain = 0
KPD1 161000Z 19012G18KT 06/M02 A3011 RMK A01 T00611021  RH  055%=      5-min Rain = 0
KPD1 161001Z 18012KT 06/M02 A3011 RMK A01 T00611021  RH  056%=      5-min Rain = 0
KPD1 161002Z 19009KT 06/M02 A3011 RMK A01 T00611021  RH  056%=      5-min Rain = 0
KPD1 161003Z 21007G12KT 06/M02 A3011 RMK A01 T00611021  RH  056%=      5-min Rain = 0
KPD1 161004Z 20008G14KT 06/M02 A3011 RMK A01 T00611021  RH  056%=      5-min Rain = 0
KPD1 161005Z 18012KT 06/M02 A3011 RMK A01 T00611021  RH  056%=      5-min Rain = 0
KPD1 161006Z 19009KT 06/M02 A3011 RMK A01 T00601021  RH  056%=      5-min Rain = 0
KPD1 161007Z 18009KT 06/M02 A3011 RMK A01 T00611021  RH  056%=      5-min Rain = 0
KPD1 161008Z 19012KT 06/M02 A3011 RMK A01 T00601021  RH  056%=      5-min Rain = 0
KPD1 161009Z 18011KT 06/M02 A3011 RMK A01 T00601020  RH  056%=      5-min Rain = 0
KPD1 161010Z 18010KT 06/M02 A3011 RMK A01 T00601020  RH  056%=      5-min Rain = 0
KPD1 161011Z 18007KT 06/M02 A3011 RMK A01 T00601020  RH  056%=      5-min Rain = 0
KPD1 161012Z 18007KT 06/M02 A3011 RMK A01 T00601020  RH  056%=      5-min Rain = 0
KPD1 161013Z 19009KT 06/M02 A3011 RMK A01 T00591021  RH  056%=      5-min Rain = 0
KPD1 161014Z 18008KT 06/M02 A3011 RMK A01 T00591020  RH  057%=      5-min Rain = 0
KPD1 161015Z 18009KT 06/M02 A3011 RMK A01 T00591020  RH  057%=      5-min Rain = 0
KPD1 161016Z 19008KT 06/M02 A3011 RMK A01 T00581021  RH  057%=      5-min Rain = 0
KPD1 161017Z 19008KT 06/M02 A3011 RMK A01 T00581021  RH  057%=      5-min Rain = 0
KPD1 161018Z 18009KT 06/M02 A3011 RMK A01 T00581020  RH  057%=      5-min Rain = 0
KPD1 161019Z 19009KT 06/M02 A3011 RMK A01 T00571021  RH  057%=      5-min Rain = 0
KPD1 161020Z 20007KT 06/M02 A3011 RMK A01 T00571020  RH  057%=      5-min Rain = 0
KPD1 161021Z 20009KT 06/M02 A3011 RMK A01 T00571021  RH  057%=      5-min Rain = 0
KPD1 161022Z 19006KT 06/M02 A3011 RMK A01 T00581020  RH  057%=      5-min Rain = 0
KPD1 161023Z 20010KT 06/M02 A3011 RMK A01 T00571020  RH  057%=      5-min Rain = 0
KPD1 161024Z 19009KT 06/M02 A3011 RMK A01 T00571020  RH  057%=      5-min Rain = 0
KPD1 161025Z 20009KT 06/M02 A3011 RMK A01 T00571020  RH  058%=      5-min Rain = 0
KPD1 161026Z 20007KT 06/M02 A3011 RMK A01 T00571020  RH  058%=      5-min Rain = 0
KPD1 161027Z 19005KT 06/M02 A3011 RMK A01 T00571020  RH  058%=      5-min Rain = 0
KPD1 161028Z 20004KT 06/M02 A3011 RMK A01 T00571020  RH  058%=      5-min Rain = 0
KPD1 161029Z 18005KT 06/M02 A3011 RMK A01 T00561020  RH  058%=      5-min Rain = 0
KPD1 161030Z 19005KT 06/M02 A3011 RMK A01 T00551021  RH  058%=      5-min Rain = 0
KPD1 161031Z 19006KT 06/M02 A3011 RMK A01 T00551020  RH  058%=      5-min Rain = 0
KPD1 161032Z 19005KT 06/M02 A3011 RMK A01 T00551020  RH  058%=      5-min Rain = 0
KPD1 161033Z 18007KT 06/M02 A3011 RMK A01 T00551020  RH  058%=      5-min Rain = 0
KPD1 161034Z 18009KT 06/M02 A3011 RMK A01 T00551020  RH  059%=      5-min Rain = 0
KPD1 161035Z 17007KT 06/M02 A3011 RMK A01 T00551020  RH  059%=      5-min Rain = 0
KPD1 161036Z 19008KT 06/M02 A3011 RMK A01 T00551020  RH  059%=      5-min Rain = 0
KPD1 161037Z 18006KT 06/M02 A3011 RMK A01 T00551019  RH  059%=      5-min Rain = 0
KPD1 161038Z 18005G10KT 05/M02 A3011 RMK A01 T00541019  RH  059%=      5-min Rain = 0
KPD1 161039Z 19006KT 05/M02 A3011 RMK A01 T00531020  RH  059%=      5-min Rain = 0
KPD1 161040Z 19008KT 05/M02 A3011 RMK A01 T00531021  RH  059%=      5-min Rain = 0
KPD1 161041Z 19008KT 05/M02 A3011 RMK A01 T00541019  RH  059%=      5-min Rain = 0
KPD1 161042Z 20009KT 05/M02 A3011 RMK A01 T00541019  RH  059%=      5-min Rain = 0
KPD1 161043Z 19007KT 05/M02 A3011 RMK A01 T00541020  RH  059%=      5-min Rain = 0
KPD1 161044Z 18008KT 05/M02 A3011 RMK A01 T00541019  RH  059%=      5-min Rain = 0
KPD1 161045Z 19007KT 05/M02 A3011 RMK A01 T00541020  RH  059%=      5-min Rain = 0
KPD1 161046Z 18007KT 05/M02 A3011 RMK A01 T00531020  RH  059%=      5-min Rain = 0
KPD1 161047Z 18007KT 05/M02 A3011 RMK A01 T00531020  RH  060%=      5-min Rain = 0
KPD1 161048Z 19006KT 05/M02 A3011 RMK A01 T00531020  RH  060%=      5-min Rain = 0
KPD1 161049Z 19008KT 05/M02 A3011 RMK A01 T00531020  RH  060%=      5-min Rain = 0
KPD1 161050Z 19008KT 05/M02 A3011 RMK A01 T00521020  RH  060%=      5-min Rain = 0
KPD1 161051Z 19010KT 05/M02 A3011 RMK A01 T00511020  RH  060%=      5-min Rain = 0
KPD1 161052Z 19012KT 05/M02 A3011 RMK A01 T00511020  RH  060%=      5-min Rain = 0
KPD1 161053Z 19010G15KT 05/M02 A3011 RMK A01 T00521019  RH  060%=      5-min Rain = 0
KPD1 161054Z 19011KT 05/M02 A301 RMK A01 T00511019  RH  060%=      5-min Rain = 0
KPD1 161055Z 19010KT 05/M02 A301 RMK A01 T00511020  RH  060%=      5-min Rain = 0
KPD1 161056Z 19008KT 05/M02 A301 RMK A01 T00521019  RH  060%=      5-min Rain = 0
KPD1 161057Z 20009G15KT 05/M02 A301 RMK A01 T00521020  RH  060%=      5-min Rain = 0
KPD1 161058Z 19006KT 05/M02 A301 RMK A01 T00511020  RH  060%=      5-min Rain = 0
KPD1 161059Z 20011KT 05/M02 A301 RMK A01 T00511020  RH  060%=      5-min Rain = 0
KPD1 161100Z 20008KT 05/M02 A301 RMK A01 T00511020  RH  060%=      5-min Rain = 0
KPD1 161101Z 20009KT 05/M02 A301 RMK A01 T00511020  RH  060%=      5-min Rain = 0
KPD1 161102Z 20006KT 05/M02 A301 RMK A01 T00511019  RH  061%=      5-min Rain = 0
KPD1 161103Z 19010G17KT 05/M02 A301 RMK A01 T00501020  RH  061%=      5-min Rain = 0
KPD1 161104Z 20010KT 05/M02 A301 RMK A01 T00511019  RH  061%=      5-min Rain = 0
KPD1 161105Z 19007KT 05/M02 A301 RMK A01 T00511019  RH  060%=      5-min Rain = 0
KPD1 161106Z 20010KT 05/M02 A301 RMK A01 T00511019  RH  060%=      5-min Rain = 0
KPD1 161107Z 19011KT 05/M02 A301 RMK A01 T00501020  RH  060%=      5-min Rain = 0
KPD1 161108Z 20010KT 05/M02 A301 RMK A01 T00501020  RH  061%=      5-min Rain = 0
KPD1 161109Z 20009KT 05/M02 A301 RMK A01 T00501019  RH  061%=      5-min Rain = 0
KPD1 161110Z 20007KT 05/M02 A301 RMK A01 T00501019  RH  061%=      5-min Rain = 0
KPD1 161111Z 20009G14KT 05/M02 A301 RMK A01 T00501020  RH  061%=      5-min Rain = 0
KPD1 161112Z 19009G14KT 05/M02 A301 RMK A01 T00491020  RH  061%=      5-min Rain = 0
KPD1 161113Z 20009KT 05/M02 A301 RMK A01 T00491020  RH  061%=      5-min Rain = 0
KPD1 161114Z 19009KT 05/M02 A301 RMK A01 T00481020  RH  061%=      5-min Rain = 0
KPD1 161115Z 19012KT 05/M02 A301 RMK A01 T00481020  RH  061%=      5-min Rain = 0
KPD1 161116Z 19010KT 05/M02 A301 RMK A01 T00481020  RH  062%=      5-min Rain = 0
KPD1 161117Z 20009KT 05/M02 A301 RMK A01 T00481020  RH  062%=      5-min Rain = 0
KPD1 161118Z 20007KT 05/M02 A301 RMK A01 T00481020  RH  061%=      5-min Rain = 0
KPD1 161119Z 18007KT 05/M02 A301 RMK A01 T00481020  RH  062%=      5-min Rain = 0
KPD1 161120Z 19010KT 05/M02 A3009 RMK A01 T00471020  RH  062%=      5-min Rain = 0
KPD1 161121Z 20008KT 05/M02 A3009 RMK A01 T00471020  RH  062%=      5-min Rain = 0
KPD1 161122Z 20008KT 05/M02 A3009 RMK A01 T00471020  RH  062%=      5-min Rain = 0
KPD1 161123Z 19009KT 05/M02 A3009 RMK A01 T00461020  RH  062%=      5-min Rain = 0
KPD1 161124Z 19007KT 05/M02 A3009 RMK A01 T00471019  RH  062%=      5-min Rain = 0
KPD1 161125Z 20009KT 05/M02 A3009 RMK A01 T00471019  RH  062%=      5-min Rain = 0
KPD1 161126Z 20007KT 05/M02 A3009 RMK A01 T00471019  RH  062%=      5-min Rain = 0
KPD1 161127Z 18008KT 05/M02 A3009 RMK A01 T00471019  RH  062%=      5-min Rain = 0
KPD1 161128Z 19007KT 05/M02 A3009 RMK A01 T00461019  RH  062%=      5-min Rain = 0
KPD1 161129Z 20007KT 05/M02 A3009 RMK A01 T00461020  RH  062%=      5-min Rain = 0
KPD1 161130Z 19005KT 05/M02 A3009 RMK A01 T00461020  RH  063%=      5-min Rain = 0
KPD1 161131Z 19007KT 05/M02 A3009 RMK A01 T00451020  RH  063%=      5-min Rain = 0
KPD1 161132Z 20006KT 05/M02 A3009 RMK A01 T00451020  RH  063%=      5-min Rain = 0
KPD1 161133Z 20006KT 05/M02 A3009 RMK A01 T00451019  RH  063%=      5-min Rain = 0
KPD1 161134Z 20007KT 05/M02 A3009 RMK A01 T00451020  RH  063%=      5-min Rain = 0
KPD1 161135Z 19008KT 05/M02 A3009 RMK A01 T00451020  RH  063%=      5-min Rain = 0
KPD1 161136Z 20010KT 05/M02 A3009 RMK A01 T00451019  RH  063%=      5-min Rain = 0
KPD1 161137Z 20009KT 05/M02 A3009 RMK A01 T00451019  RH  063%=      5-min Rain = 0
KPD1 161138Z 20009KT 05/M02 A3009 RMK A01 T00451019  RH  063%=      5-min Rain = 0
KPD1 161139Z 19008KT 05/M02 A3009 RMK A01 T00451019  RH  063%=      5-min Rain = 0
KPD1 161140Z 20008KT 05/M02 A3009 RMK A01 T00451019  RH  063%=      5-min Rain = 0
KPD1 161141Z 21008G13KT 04/M02 A3009 RMK A01 T00441019  RH  063%=      5-min Rain = 0
KPD1 161142Z 20011KT 04/M02 A3009 RMK A01 T00441019  RH  064%=      5-min Rain = 0
KPD1 161143Z 20010KT 05/M02 A3009 RMK A01 T00451018  RH  063%=      5-min Rain = 0
KPD1 161144Z 20008KT 05/M02 A3009 RMK A01 T00461018  RH  063%=      5-min Rain = 0
KPD1 161145Z 20009KT 05/M02 A3009 RMK A01 T00461018  RH  063%=      5-min Rain = 0
KPD1 161146Z 19010KT 05/M02 A3009 RMK A01 T00451019  RH  063%=      5-min Rain = 0
KPD1 161147Z 21007KT 04/M02 A3009 RMK A01 T00441019  RH  063%=      5-min Rain = 0
KPD1 161148Z 20008KT 04/M02 A3009 RMK A01 T00441019  RH  064%=      5-min Rain = 0
KPD1 161149Z 21007KT 04/M02 A3009 RMK A01 T00441019  RH  063%=      5-min Rain = 0
KPD1 161150Z 20008KT 04/M02 A3009 RMK A01 T00441019  RH  064%=      5-min Rain = 0
KPD1 161151Z 20007KT 04/M02 A3009 RMK A01 T00431019  RH  064%=      5-min Rain = 0
KPD1 161152Z 21009KT 04/M02 A3009 RMK A01 T00441019  RH  064%=      5-min Rain = 0
KPD1 161153Z 21007G12KT 04/M02 A3009 RMK A01 T00441018  RH  064%=      5-min Rain = 0
KPD1 161154Z 20006KT 04/M02 A3009 RMK A01 T00431019  RH  064%=      5-min Rain = 0
KPD1 161155Z 20007KT 04/M02 A3009 RMK A01 T00431019  RH  064%=      5-min Rain = 0
KPD1 161156Z 21008KT 04/M02 A3009 RMK A01 T00421019  RH  064%=      5-min Rain = 0
KPD1 161157Z 21010KT 04/M02 A3009 RMK A01 T00421019  RH  064%=      5-min Rain = 0
KPD1 161158Z 21007KT 04/M02 A3009 RMK A01 T00421019  RH  064%=      5-min Rain = 0
KPD1 161159Z 21008KT 04/M02 A3009 RMK A01 T00421019  RH  065%=      5-min Rain = 0
KPD1 161200Z 20007KT 04/M02 A3009 RMK A01 T00421019  RH  065%=      5-min Rain = 0
KPD1 161201Z 19007KT 04/M02 A3009 RMK A01 T00411019  RH  065%=      5-min Rain = 0
KPD1 161202Z 20006KT 04/M02 A3009 RMK A01 T00411019  RH  065%=      5-min Rain = 0
KPD1 161203Z 19006KT 04/M02 A3009 RMK A01 T00411019  RH  065%=      5-min Rain = 0
KPD1 161204Z 20006KT 04/M02 A3009 RMK A01 T00411019  RH  065%=      5-min Rain = 0
KPD1 161205Z 20007KT 04/M02 A3009 RMK A01 T00401019  RH  065%=      5-min Rain = 0
KPD1 161206Z 20009KT 04/M02 A3009 RMK A01 T00401019  RH  065%=      5-min Rain = 0
KPD1 161207Z 19008KT 04/M02 A3009 RMK A01 T00401019  RH  065%=      5-min Rain = 0
KPD1 161208Z 19006KT 04/M02 A3009 RMK A01 T00401019  RH  065%=      5-min Rain = 0
KPD1 161209Z 20007KT 04/M02 A3009 RMK A01 T00411019  RH  065%=      5-min Rain = 0
KPD1 161210Z 20008KT 04/M02 A3009 RMK A01 T00401019  RH  065%=      5-min Rain = 0
KPD1 161211Z 20007KT 04/M02 A3009 RMK A01 T00401019  RH  065%=      5-min Rain = 0
KPD1 161212Z 20007KT 04/M02 A3009 RMK A01 T00401019  RH  065%=      5-min Rain = 0
KPD1 161213Z 19007KT 04/M02 A3009 RMK A01 T00401019  RH  065%=      5-min Rain = 0
KPD1 161214Z 19006KT 04/M02 A3009 RMK A01 T00401019  RH  066%=      5-min Rain = 0
KPD1 161215Z 20007KT 04/M02 A3009 RMK A01 T00401019  RH  066%=      5-min Rain = 0
KPD1 161216Z 20007KT 04/M02 A3009 RMK A01 T00401019  RH  066%=      5-min Rain = 0
KPD1 161217Z 21008KT 04/M02 A3009 RMK A01 T00391019  RH  066%=      5-min Rain = 0
KPD1 161218Z 20007KT 04/M02 A3009 RMK A01 T00391019  RH  066%=      5-min Rain = 0
KPD1 161219Z 19005KT 04/M02 A3009 RMK A01 T00401019  RH  066%=      5-min Rain = 0
KPD1 161220Z 19005KT 04/M02 A3009 RMK A01 T00391019  RH  066%=      5-min Rain = 0
KPD1 161221Z 20006KT 04/M02 A3009 RMK A01 T00391019  RH  066%=      5-min Rain = 0
KPD1 161222Z 19006KT 04/M02 A3009 RMK A01 T00381019  RH  066%=      5-min Rain = 0
KPD1 161223Z 19008KT 04/M02 A3009 RMK A01 T00391019  RH  066%=      5-min Rain = 0
KPD1 161224Z 19007KT 04/M02 A3009 RMK A01 T00391019  RH  066%=      5-min Rain = 0
KPD1 161225Z 20007KT 04/M02 A3009 RMK A01 T00391018  RH  066%=      5-min Rain = 0
KPD1 161226Z 18008KT 04/M02 A3009 RMK A01 T00381019  RH  066%=      5-min Rain = 0
KPD1 161227Z 19006KT 04/M02 A3009 RMK A01 T00381019  RH  066%=      5-min Rain = 0
KPD1 161228Z 19006KT 04/M02 A3009 RMK A01 T00391019  RH  066%=      5-min Rain = 0
KPD1 161229Z 19008KT 04/M02 A3009 RMK A01 T00381019  RH  066%=      5-min Rain = 0
KPD1 161230Z 18006KT 04/M02 A3009 RMK A01 T00381019  RH  066%=      5-min Rain = 0
KPD1 161231Z 20007KT 04/M02 A3009 RMK A01 T00381019  RH  066%=      5-min Rain = 0
KPD1 161232Z 19004KT 04/M02 A3009 RMK A01 T00381019  RH  066%=      5-min Rain = 0
KPD1 161233Z 18004KT 04/M02 A3009 RMK A01 T00381019  RH  066%=      5-min Rain = 0
KPD1 161234Z 19004KT 04/M02 A3009 RMK A01 T00381019  RH  066%=      5-min Rain = 0
KPD1 161235Z 17004KT 04/M02 A3009 RMK A01 T00381019  RH  066%=      5-min Rain = 0
KPD1 161236Z 19005KT 04/M02 A3009 RMK A01 T00371019  RH  066%=      5-min Rain = 0
KPD1 161237Z 19007KT 04/M02 A3008 RMK A01 T00371019  RH  067%=      5-min Rain = 0
KPD1 161238Z 18006KT 04/M02 A3009 RMK A01 T00371019  RH  067%=      5-min Rain = 0
KPD1 161239Z 18007KT 04/M02 A3008 RMK A01 T00371019  RH  067%=      5-min Rain = 0
KPD1 161240Z 18006KT 04/M02 A3008 RMK A01 T00381018  RH  067%=      5-min Rain = 0
KPD1 161241Z 19006KT 04/M02 A3008 RMK A01 T00381018  RH  067%=      5-min Rain = 0
KPD1 161242Z 19004KT 04/M02 A3008 RMK A01 T00391018  RH  066%=      5-min Rain = 0
KPD1 161243Z 21005KT 04/M02 A3008 RMK A01 T00381018  RH  066%=      5-min Rain = 0
KPD1 161244Z 19006KT 04/M02 A3008 RMK A01 T00381019  RH  066%=      5-min Rain = 0
KPD1 161245Z 19006KT 04/M02 A3009 RMK A01 T00371019  RH  067%=      5-min Rain = 0
KPD1 161246Z 20007KT 04/M02 A3009 RMK A01 T00381018  RH  067%=      5-min Rain = 0
KPD1 161247Z 19008KT 04/M02 A3009 RMK A01 T00381018  RH  067%=      5-min Rain = 0
KPD1 161248Z 19006KT 04/M02 A3009 RMK A01 T00381018  RH  067%=      5-min Rain = 0
KPD1 161249Z 19004KT 04/M02 A3009 RMK A01 T00381018  RH  067%=      5-min Rain = 0
KPD1 161250Z 19007KT 04/M02 A3009 RMK A01 T00381018  RH  067%=      5-min Rain = 0
KPD1 161251Z 19007KT 04/M02 A3009 RMK A01 T00381018  RH  067%=      5-min Rain = 0
KPD1 161252Z 20006KT 04/M02 A3009 RMK A01 T00381018  RH  067%=      5-min Rain = 0
KPD1 161253Z 19006KT 04/M02 A3009 RMK A01 T00381018  RH  067%=      5-min Rain = 0
KPD1 161254Z 19007KT 04/M02 A3009 RMK A01 T00381018  RH  067%=      5-min Rain = 0
KPD1 161255Z 19006KT 04/M02 A3009 RMK A01 T00371018  RH  067%=      5-min Rain = 0
KPD1 161256Z 20005KT 04/M02 A3009 RMK A01 T00371018  RH  067%=      5-min Rain = 0
KPD1 161257Z 19005KT 04/M02 A3009 RMK A01 T00371018  RH  067%=      5-min Rain = 0
KPD1 161258Z 19006KT 04/M02 A3009 RMK A01 T00361019  RH  067%=      5-min Rain = 0
KPD1 161259Z 20006KT 04/M02 A3009 RMK A01 T00371018  RH  067%=      5-min Rain = 0
KPD1 161300Z 19006KT 04/M02 A3009 RMK A01 T00371018  RH  068%=      5-min Rain = 0
KPD1 161301Z 19005KT 04/M02 A3009 RMK A01 T00371018  RH  068%=      5-min Rain = 0
KPD1 161302Z 21004KT 04/M02 A3009 RMK A01 T00371018  RH  068%=      5-min Rain = 0
KPD1 161303Z 20004KT 04/M02 A3009 RMK A01 T00361018  RH  068%=      5-min Rain = 0
KPD1 161304Z 21006KT 04/M02 A3009 RMK A01 T00361018  RH  068%=      5-min Rain = 0
KPD1 161305Z 20006KT 04/M02 A3009 RMK A01 T00361018  RH  068%=      5-min Rain = 0
KPD1 161306Z 20005KT 04/M02 A3009 RMK A01 T00361017  RH  068%=      5-min Rain = 0
KPD1 161307Z 20006KT 04/M02 A3009 RMK A01 T00361018  RH  068%=      5-min Rain = 0
KPD1 161308Z 19004KT 04/M02 A3009 RMK A01 T00361018  RH  068%=      5-min Rain = 0
KPD1 161309Z 20006KT 04/M02 A3009 RMK A01 T00361018  RH  068%=      5-min Rain = 0
KPD1 161310Z 20005KT 04/M02 A3009 RMK A01 T00361018  RH  068%=      5-min Rain = 0
KPD1 161311Z 20006KT 04/M02 A3009 RMK A01 T00371017  RH  068%=      5-min Rain = 0
KPD1 161312Z 19006KT 04/M02 A3009 RMK A01 T00371017  RH  068%=      5-min Rain = 0
KPD1 161313Z 19006KT 04/M02 A3009 RMK A01 T00371017  RH  068%=      5-min Rain = 0
KPD1 161314Z 20006KT 04/M02 A3009 RMK A01 T00371017  RH  067%=      5-min Rain = 0
KPD1 161315Z 18007KT 04/M02 A3009 RMK A01 T00371017  RH  067%=      5-min Rain = 0
KPD1 161316Z 19006KT 04/M02 A3009 RMK A01 T00371017  RH  067%=      5-min Rain = 0
KPD1 161317Z 19008KT 04/M02 A3009 RMK A01 T00371017  RH  068%=      5-min Rain = 0
KPD1 161318Z 18007KT 04/M02 A3009 RMK A01 T00371017  RH  068%=      5-min Rain = 0
KPD1 161319Z 20006KT 04/M02 A3009 RMK A01 T00381017  RH  068%=      5-min Rain = 0
KPD1 161320Z 19005KT 04/M02 A3009 RMK A01 T00381016  RH  068%=      5-min Rain = 0
KPD1 161321Z 19005KT 04/M02 A3009 RMK A01 T00381016  RH  067%=      5-min Rain = 0
KPD1 161322Z 19005KT 04/M02 A3009 RMK A01 T00381017  RH  067%=      5-min Rain = 0
KPD1 161323Z 19004KT 04/M02 A3009 RMK A01 T00381016  RH  067%=      5-min Rain = 0
KPD1 161324Z 19003KT 04/M02 A3009 RMK A01 T00381016  RH  067%=      5-min Rain = 0
KPD1 161325Z 20005KT 04/M02 A3009 RMK A01 T00381016  RH  067%=      5-min Rain = 0
KPD1 161326Z 19004KT 04/M02 A3009 RMK A01 T00381017  RH  068%=      5-min Rain = 0
KPD1 161327Z 20007KT 04/M02 A3009 RMK A01 T00381016  RH  068%=      5-min Rain = 0
KPD1 161328Z 19005KT 04/M02 A3009 RMK A01 T00381016  RH  068%=      5-min Rain = 0
KPD1 161329Z 18004KT 04/M02 A3009 RMK A01 T00381016  RH  068%=      5-min Rain = 0
KPD1 161330Z 19007KT 04/M02 A3009 RMK A01 T00391016  RH  068%=      5-min Rain = 0
KPD1 161331Z 20006KT 04/M02 A3009 RMK A01 T00381016  RH  068%=      5-min Rain = 0
KPD1 161332Z 19004KT 04/M02 A3009 RMK A01 T00381016  RH  068%=      5-min Rain = 0
KPD1 161333Z 19005KT 04/M02 A3009 RMK A01 T00391016  RH  068%=      5-min Rain = 0
KPD1 161334Z 19006KT 04/M02 A3009 RMK A01 T00381016  RH  068%=      5-min Rain = 0
KPD1 161335Z 19007KT 04/M02 A3009 RMK A01 T00381016  RH  068%=      5-min Rain = 0
KPD1 161336Z 19007KT 04/M02 A3009 RMK A01 T00381016  RH  068%=      5-min Rain = 0
KPD1 161337Z 19005KT 04/M02 A3009 RMK A01 T00381016  RH  068%=      5-min Rain = 0
KPD1 161338Z 20005KT 04/M02 A3009 RMK A01 T00381016  RH  068%=      5-min Rain = 0
KPD1 161339Z 20006KT 04/M02 A3009 RMK A01 T00381016  RH  068%=      5-min Rain = 0
KPD1 161340Z 20007KT 04/M02 A3009 RMK A01 T00381016  RH  068%=      5-min Rain = 0
KPD1 161341Z 20006KT 04/M02 A3009 RMK A01 T00381016  RH  068%=      5-min Rain = 0
KPD1 161342Z 20005KT 04/M02 A3009 RMK A01 T00381016  RH  068%=      5-min Rain = 0
KPD1 161343Z 20004KT 04/M02 A3009 RMK A01 T00381016  RH  068%=      5-min Rain = 0
KPD1 161344Z 19005KT 04/M02 A3009 RMK A01 T00381016  RH  068%=      5-min Rain = 0
KPD1 161345Z 19005KT 04/M02 A3009 RMK A01 T00381016  RH  068%=      5-min Rain = 0
KPD1 161346Z 19006KT 04/M02 A3009 RMK A01 T00381016  RH  068%=      5-min Rain = 0
KPD1 161347Z 20005KT 04/M02 A3009 RMK A01 T00381015  RH  068%=      5-min Rain = 0
KPD1 161348Z 19005KT 04/M02 A3009 RMK A01 T00381015  RH  068%=      5-min Rain = 0
KPD1 161349Z 19006KT 04/M02 A3009 RMK A01 T00391015  RH  068%=      5-min Rain = 0
KPD1 161350Z 18006KT 04/M02 A3009 RMK A01 T00391015  RH  068%=      5-min Rain = 0
KPD1 161351Z 19006KT 04/M01 A3009 RMK A01 T00401014  RH  068%=      5-min Rain = 0
KPD1 161352Z 19006KT 04/M01 A3009 RMK A01 T00401014  RH  068%=      5-min Rain = 0
KPD1 161353Z 19007KT 04/M01 A3009 RMK A01 T00401014  RH  068%=      5-min Rain = 0
KPD1 161354Z 18006KT 04/M01 A3009 RMK A01 T00411014  RH  068%=      5-min Rain = 0
KPD1 161355Z 18006KT 04/M01 A3009 RMK A01 T00421013  RH  067%=      5-min Rain = 0
KPD1 161356Z 19006KT 04/M01 A3009 RMK A01 T00421014  RH  067%=      5-min Rain = 0
KPD1 161357Z 19005KT 04/M01 A3009 RMK A01 T00421014  RH  067%=      5-min Rain = 0
KPD1 161358Z 20005KT 04/M01 A3009 RMK A01 T00421014  RH  067%=      5-min Rain = 0
KPD1 161359Z 19004KT 04/M01 A3009 RMK A01 T00421013  RH  067%=      5-min Rain = 0
KPD1 161400Z 19005KT 04/M01 A3009 RMK A01 T00431013  RH  067%=      5-min Rain = 0
KPD1 161401Z 19006KT 04/M01 A3009 RMK A01 T00421013  RH  067%=      5-min Rain = 0
KPD1 161402Z 18006KT 04/M01 A3009 RMK A01 T00431013  RH  067%=      5-min Rain = 0
KPD1 161403Z 19008KT 04/M01 A3009 RMK A01 T00441013  RH  067%=      5-min Rain = 0
KPD1 161404Z 20006KT 04/M01 A3009 RMK A01 T00441013  RH  067%=      5-min Rain = 0
KPD1 161405Z 20005KT 04/M01 A3009 RMK A01 T00441013  RH  067%=      5-min Rain = 0
KPD1 161406Z 19005KT 04/M01 A3009 RMK A01 T00441013  RH  066%=      5-min Rain = 0
KPD1 161407Z 18005KT 04/M01 A3009 RMK A01 T00441013  RH  066%=      5-min Rain = 0
KPD1 161408Z 18004KT 05/M01 A3009 RMK A01 T00451012  RH  066%=      5-min Rain = 0
KPD1 161409Z 18005KT 05/M01 A3009 RMK A01 T00451013  RH  066%=      5-min Rain = 0
KPD1 161410Z 19006KT 05/M01 A3009 RMK A01 T00451012  RH  066%=      5-min Rain = 0
KPD1 161411Z 17004KT 05/M01 A3009 RMK A01 T00461012  RH  066%=      5-min Rain = 0
KPD1 161412Z 19004KT 05/M01 A3009 RMK A01 T00461012  RH  066%=      5-min Rain = 0
KPD1 161413Z 20005KT 05/M01 A3009 RMK A01 T00471012  RH  066%=      5-min Rain = 0
KPD1 161414Z 18004KT 05/M01 A3009 RMK A01 T00471011  RH  066%=      5-min Rain = 0
KPD1 161415Z 20004KT 05/M01 A3009 RMK A01 T00471011  RH  066%=      5-min Rain = 0
KPD1 161416Z 16004KT 05/M01 A3009 RMK A01 T00481011  RH  066%=      5-min Rain = 0
KPD1 161417Z 20007KT 05/M01 A3009 RMK A01 T00481011  RH  065%=      5-min Rain = 0
KPD1 161418Z 20003KT 05/M01 A3009 RMK A01 T00491011  RH  065%=      5-min Rain = 0
KPD1 161419Z 21005KT 05/M01 A3009 RMK A01 T00491011  RH  065%=      5-min Rain = 0
KPD1 161420Z 21005KT 05/M01 A3009 RMK A01 T00491011  RH  065%=      5-min Rain = 0
KPD1 161421Z 19004KT 05/M01 A3009 RMK A01 T00491011  RH  065%=      5-min Rain = 0
KPD1 161422Z 20005KT 05/M01 A3009 RMK A01 T00501010  RH  065%=      5-min Rain = 0
KPD1 161423Z 21005KT 05/M01 A3009 RMK A01 T00501010  RH  065%=      5-min Rain = 0
KPD1 161424Z 22006KT 05/M01 A3009 RMK A01 T00511009  RH  065%=      5-min Rain = 0
KPD1 161425Z 20004KT 05/M01 A3009 RMK A01 T00511009  RH  065%=      5-min Rain = 0
KPD1 161426Z 20004KT 05/M01 A3009 RMK A01 T00521009  RH  065%=      5-min Rain = 0
KPD1 161427Z 22006KT 05/M01 A3009 RMK A01 T00521008  RH  065%=      5-min Rain = 0
KPD1 161428Z 18003KT 05/M01 A3009 RMK A01 T00531008  RH  065%=      5-min Rain = 0
KPD1 161429Z 21004KT 05/M01 A3009 RMK A01 T00541008  RH  065%=      5-min Rain = 0
KPD1 161430Z 20004KT 05/M01 A3009 RMK A01 T00541008  RH  064%=      5-min Rain = 0
KPD1 161431Z 18003KT 06/M01 A3009 RMK A01 T00551008  RH  064%=      5-min Rain = 0
KPD1 161432Z 18004KT 06/M01 A3009 RMK A01 T00551008  RH  064%=      5-min Rain = 0
KPD1 161433Z 19005KT 06/M01 A3009 RMK A01 T00561007  RH  064%=      5-min Rain = 0
KPD1 161434Z 19006KT 06/M01 A3009 RMK A01 T00571007  RH  063%=      5-min Rain = 0
KPD1 161435Z 17004KT 06/M01 A3009 RMK A01 T00571008  RH  063%=      5-min Rain = 0
KPD1 161436Z 17004KT 06/M01 A3009 RMK A01 T00581007  RH  063%=      5-min Rain = 0
KPD1 161437Z 18004KT 06/M01 A3009 RMK A01 T00601007  RH  062%=      5-min Rain = 0
KPD1 161438Z 19004KT 06/M01 A3009 RMK A01 T00601008  RH  062%=      5-min Rain = 0
KPD1 161439Z 18004KT 06/M01 A3009 RMK A01 T00611007  RH  062%=      5-min Rain = 0
KPD1 161440Z 19003KT 06/M01 A3009 RMK A01 T00621007  RH  062%=      5-min Rain = 0
KPD1 161441Z 18005KT 06/M01 A3009 RMK A01 T00631006  RH  061%=      5-min Rain = 0
KPD1 161442Z 19005KT 07/M01 A3009 RMK A01 T00651006  RH  061%=      5-min Rain = 0
KPD1 161443Z 17004KT 07/M01 A3009 RMK A01 T00661005  RH  061%=      5-min Rain = 0
KPD1 161444Z 17002KT 07/M01 A3009 RMK A01 T00661005  RH  060%=      5-min Rain = 0
KPD1 161445Z 20002KT 07/M01 A3009 RMK A01 T00671005  RH  060%=      5-min Rain = 0
KPD1 161446Z 18002KT 07/M00 A3009 RMK A01 T00681004  RH  060%=      5-min Rain = 0
KPD1 161447Z 17005KT 07/M01 A3009 RMK A01 T00691005  RH  059%=      5-min Rain = 0
KPD1 161448Z 19008KT 07/M01 A3009 RMK A01 T00691005  RH  059%=      5-min Rain = 0
KPD1 161449Z 20005KT 07/M01 A3009 RMK A01 T00691005  RH  059%=      5-min Rain = 0
KPD1 161450Z 19004KT 07/M01 A3009 RMK A01 T00701005  RH  059%=      5-min Rain = 0
KPD1 161451Z 19003KT 07/M01 A3009 RMK A01 T00691005  RH  059%=      5-min Rain = 0
KPD1 161452Z 19002KT 07/M00 A3009 RMK A01 T00711004  RH  059%=      5-min Rain = 0
KPD1 161453Z 15004KT 07/M00 A3009 RMK A01 T00721004  RH  059%=      5-min Rain = 0
KPD1 161454Z 18005KT 07/M00 A3009 RMK A01 T00721004  RH  058%=      5-min Rain = 0
KPD1 161455Z 18006KT 07/M00 A3009 RMK A01 T00741003  RH  058%=      5-min Rain = 0
KPD1 161456Z 15004KT 07/M00 A3009 RMK A01 T00741004  RH  058%=      5-min Rain = 0
KPD1 161457Z 19003KT 07/M00 A3009 RMK A01 T00741003  RH  058%=      5-min Rain = 0
KPD1 161458Z 16004KT 08/M00 A3009 RMK A01 T00761002  RH  058%=      5-min Rain = 0
KPD1 161459Z 15003KT 08/M00 A3009 RMK A01 T00761003  RH  057%=      5-min Rain = 0
KPD1 161500Z 18004KT 08/M00 A3009 RMK A01 T00761003  RH  057%=      5-min Rain = 0
KPD1 161501Z 17005KT 08/M00 A3009 RMK A01 T00771003  RH  057%=      5-min Rain = 0
KPD1 161502Z 17005KT 08/M00 A3009 RMK A01 T00781002  RH  057%=      5-min Rain = 0
KPD1 161503Z 17005KT 08/M00 A3009 RMK A01 T00791002  RH  057%=      5-min Rain = 0
KPD1 161504Z 17003KT 08/M00 A3009 RMK A01 T00791002  RH  056%=      5-min Rain = 0
KPD1 161505Z 17005KT 08/M00 A3009 RMK A01 T00801002  RH  056%=      5-min Rain = 0
KPD1 161506Z 17007KT 08/M00 A3009 RMK A01 T00801002  RH  056%=      5-min Rain = 0
KPD1 161507Z 19005KT 08/M00 A3009 RMK A01 T00791002  RH  056%=      5-min Rain = 0
KPD1 161508Z 17004KT 08/M00 A3009 RMK A01 T00791002  RH  057%=      5-min Rain = 0
KPD1 161509Z 17005KT 08/M00 A3009 RMK A01 T00791001  RH  057%=      5-min Rain = 0
KPD1 161510Z 18003KT 08/M00 A3009 RMK A01 T00791001  RH  057%=      5-min Rain = 0
KPD1 161511Z 19004KT 08/M00 A3009 RMK A01 T00791001  RH  057%=      5-min Rain = 0
KPD1 161512Z 17005KT 08/M00 A3009 RMK A01 T00781002  RH  057%=      5-min Rain = 0
KPD1 161513Z 17005KT 08/M00 A3009 RMK A01 T00781002  RH  057%=      5-min Rain = 0
KPD1 161514Z 17005KT 08/M00 A3008 RMK A01 T00781001  RH  057%=      5-min Rain = 0
KPD1 161515Z 17006KT 08/M00 A3008 RMK A01 T00791001  RH  057%=      5-min Rain = 0
KPD1 161516Z 18006KT 08/M00 A3008 RMK A01 T00801001  RH  057%=      5-min Rain = 0
KPD1 161517Z 18005KT 08/M00 A3008 RMK A01 T00801001  RH  057%=      5-min Rain = 0
KPD1 161518Z 19007KT 08/00 A3008 RMK A01 T008100-0  RH  057%=      5-min Rain = 0
KPD1 161519Z 20007KT 08/00 A3008 RMK A01 T00820001  RH  057%=      5-min Rain = 0
KPD1 161520Z 19009KT 08/00 A3008 RMK A01 T00840002  RH  056%=      5-min Rain = 0
KPD1 161521Z 21009KT 09/00 A3008 RMK A01 T00850001  RH  055%=      5-min Rain = 0
KPD1 161522Z 19008KT 09/00 A3008 RMK A01 T00860001  RH  055%=      5-min Rain = 0
KPD1 161523Z 21007KT 09/00 A3008 RMK A01 T00870002  RH  055%=      5-min Rain = 0
KPD1 161524Z 20010KT 09/00 A3008 RMK A01 T00880003  RH  055%=      5-min Rain = 0
KPD1 161525Z 17006KT 09/00 A3008 RMK A01 T00880002  RH  055%=      5-min Rain = 0
KPD1 161526Z 17005KT 09/00 A3008 RMK A01 T00880001  RH  054%=      5-min Rain = 0
KPD1 161527Z 17005KT 09/00 A3008 RMK A01 T00890002  RH  054%=      5-min Rain = 0
KPD1 161528Z 18003KT 09/00 A3008 RMK A01 T00900003  RH  054%=      5-min Rain = 0
KPD1 161529Z 18004KT 09/01 A3008 RMK A01 T00920005  RH  054%=      5-min Rain = 0
KPD1 161530Z 17006KT 10/01 A3008 RMK A01 T00950005  RH  054%=      5-min Rain = 0
KPD1 161531Z 18008KT 10/01 A3008 RMK A01 T00960005  RH  053%=      5-min Rain = 0
KPD1 161532Z 19006KT 10/00 A3008 RMK A01 T00970004  RH  052%=      5-min Rain = 0
KPD1 161533Z 18006KT 10/00 A3008 RMK A01 T00960004  RH  053%=      5-min Rain = 0
KPD1 161534Z 18005KT 10/00 A3008 RMK A01 T00970004  RH  053%=      5-min Rain = 0
KPD1 161535Z 18005KT 10/01 A3008 RMK A01 T00970006  RH  053%=      5-min Rain = 0
KPD1 161536Z 19005KT 10/00 A3008 RMK A01 T00980004  RH  052%=      5-min Rain = 0
KPD1 161537Z 19005KT 10/00 A3008 RMK A01 T00980004  RH  052%=      5-min Rain = 0
KPD1 161538Z 19004KT 10/01 A3008 RMK A01 T00980005  RH  052%=      5-min Rain = 0
KPD1 161539Z 20007KT 10/01 A3008 RMK A01 T00990006  RH  052%=      5-min Rain = 0
KPD1 161540Z 19006KT 10/01 A3008 RMK A01 T00990005  RH  052%=      5-min Rain = 0
KPD1 161541Z 20007KT 10/01 A3008 RMK A01 T01000006  RH  052%=      5-min Rain = 0
KPD1 161542Z 19007KT 10/01 A3008 RMK A01 T01010007  RH  052%=      5-min Rain = 0
KPD1 161543Z 20008KT 10/01 A3008 RMK A01 T01010008  RH  052%=      5-min Rain = 0
KPD1 161544Z 19007KT 10/01 A3008 RMK A01 T01020008  RH  052%=      5-min Rain = 0
KPD1 161545Z 19007KT 10/01 A3008 RMK A01 T01020008  RH  052%=      5-min Rain = 0
KPD1 161546Z 19008KT 10/01 A3008 RMK A01 T01020007  RH  052%=      5-min Rain = 0
KPD1 161547Z 18008KT 10/01 A3008 RMK A01 T01020007  RH  052%=      5-min Rain = 0
KPD1 161548Z 18006KT 10/01 A3008 RMK A01 T01020008  RH  052%=      5-min Rain = 0
KPD1 161549Z 19009KT 10/01 A3008 RMK A01 T01030008  RH  052%=      5-min Rain = 0
KPD1 161550Z 20009KT 10/01 A3008 RMK A01 T01040008  RH  052%=      5-min Rain = 0
KPD1 161551Z 19009KT 10/01 A3008 RMK A01 T01040009  RH  052%=      5-min Rain = 0
KPD1 161552Z 19009KT 11/01 A3008 RMK A01 T01050010  RH  052%=      5-min Rain = 0
KPD1 161553Z 19011KT 11/01 A3008 RMK A01 T01060009  RH  051%=      5-min Rain = 0
KPD1 161554Z 19010KT 11/01 A3008 RMK A01 T01060009  RH  051%=      5-min Rain = 0
KPD1 161555Z 19009KT 11/01 A3008 RMK A01 T01070009  RH  051%=      5-min Rain = 0
KPD1 161556Z 18008KT 11/01 A3008 RMK A01 T01070009  RH  051%=      5-min Rain = 0
KPD1 161557Z 19008KT 11/01 A3008 RMK A01 T01090010  RH  051%=      5-min Rain = 0
KPD1 161558Z 20009KT 11/01 A3008 RMK A01 T01100011  RH  050%=      5-min Rain = 0
KPD1 161559Z 19008KT 11/01 A3008 RMK A01 T01110010  RH  050%=      5-min Rain = 0
KPD1 161600Z 18008KT 11/01 A3008 RMK A01 T01120011  RH  050%=      5-min Rain = 0
KPD1 161601Z 19009KT 11/01 A3008 RMK A01 T01130011  RH  050%=      5-min Rain = 0
KPD1 161602Z 18009KT 11/01 A3008 RMK A01 T01130011  RH  049%=      5-min Rain = 0
KPD1 161603Z 17009KT 11/01 A3008 RMK A01 T01140011  RH  049%=      5-min Rain = 0
KPD1 161604Z 19008KT 12/01 A3008 RMK A01 T01150012  RH  049%=      5-min Rain = 0
KPD1 161605Z 20010KT 12/01 A3008 RMK A01 T01160011  RH  048%=      5-min Rain = 0
KPD1 161606Z 19009KT 12/01 A3008 RMK A01 T01160010  RH  048%=      5-min Rain = 0
KPD1 161607Z 18008KT 12/01 A3008 RMK A01 T01170012  RH  048%=      5-min Rain = 0
KPD1 161608Z 19009KT 12/01 A3008 RMK A01 T01180012  RH  048%=      5-min Rain = 0
KPD1 161609Z 18006KT 12/01 A3008 RMK A01 T01200012  RH  048%=      5-min Rain = 0
KPD1 161610Z 19011KT 12/01 A3008 RMK A01 T01220013  RH  047%=      5-min Rain = 0
KPD1 161611Z 18009KT 12/01 A3008 RMK A01 T01220011  RH  047%=      5-min Rain = 0
KPD1 161612Z 19010KT 12/01 A3007 RMK A01 T01230011  RH  046%=      5-min Rain = 0
KPD1 161613Z 20010KT 12/01 A3007 RMK A01 T01240011  RH  046%=      5-min Rain = 0
KPD1 161614Z 19007KT 12/01 A3007 RMK A01 T01240010  RH  046%=      5-min Rain = 0
KPD1 161615Z 20007KT 13/01 A3007 RMK A01 T01250013  RH  046%=      5-min Rain = 0
KPD1 161616Z 20008KT 13/01 A3007 RMK A01 T01280013  RH  046%=      5-min Rain = 0
KPD1 161617Z 19008KT 13/01 A3007 RMK A01 T01290012  RH  045%=      5-min Rain = 0
KPD1 161618Z 19008KT 13/01 A3007 RMK A01 T01290012  RH  045%=      5-min Rain = 0
KPD1 161619Z 18006KT 13/01 A3007 RMK A01 T01310012  RH  044%=      5-min Rain = 0
KPD1 161620Z 19008KT 13/01 A3007 RMK A01 T01320012  RH  044%=      5-min Rain = 0
KPD1 161621Z 19007KT 13/01 A3007 RMK A01 T01340013  RH  044%=      5-min Rain = 0
KPD1 161622Z 20009KT 14/01 A3007 RMK A01 T01360012  RH  043%=      5-min Rain = 0
KPD1 161623Z 18008KT 14/01 A3007 RMK A01 T01360013  RH  043%=      5-min Rain = 0
KPD1 161624Z 19008KT 14/01 A3007 RMK A01 T01390012  RH  042%=      5-min Rain = 0
KPD1 161625Z 19008KT 14/01 A3007 RMK A01 T01390012  RH  042%=      5-min Rain = 0
KPD1 161626Z 18006KT 14/02 A3007 RMK A01 T01420015  RH  042%=      5-min Rain = 0
KPD1 161627Z 19010KT 14/01 A3006 RMK A01 T01440014  RH  041%=      5-min Rain = 0
KPD1 161628Z 18008KT 15/01 A3006 RMK A01 T01460014  RH  041%=      5-min Rain = 0
KPD1 161629Z 19008KT 15/01 A3007 RMK A01 T01460012  RH  040%=      5-min Rain = 0
KPD1 161630Z 21007KT 15/01 A3007 RMK A01 T01470014  RH  040%=      5-min Rain = 0
KPD1 161631Z 19006KT 15/01 A3006 RMK A01 T01480012  RH  040%=      5-min Rain = 0
KPD1 161632Z 20006KT 15/02 A3006 RMK A01 T01510016  RH  040%=      5-min Rain = 0
KPD1 161633Z 20007KT 15/02 A3006 RMK A01 T01540016  RH  039%=      5-min Rain = 0
KPD1 161634Z 20007KT 16/02 A3006 RMK A01 T01560016  RH  039%=      5-min Rain = 0
KPD1 161635Z 21009KT 16/02 A3006 RMK A01 T01570015  RH  038%=      5-min Rain = 0
KPD1 161636Z 20009KT 16/01 A3006 RMK A01 T01570014  RH  038%=      5-min Rain = 0
KPD1 161637Z 21007KT 16/01 A3006 RMK A01 T01570012  RH  037%=      5-min Rain = 0
KPD1 161638Z 18009KT 16/01 A3006 RMK A01 T01570009  RH  037%=      5-min Rain = 0
KPD1 161639Z 19010KT 16/01 A3006 RMK A01 T01560011  RH  037%=      5-min Rain = 0
KPD1 161640Z 19009KT 16/01 A3006 RMK A01 T01560009  RH  037%=      5-min Rain = 0
KPD1 161641Z 20010G15KT 16/01 A3006 RMK A01 T01560008  RH  037%=      5-min Rain = 0
KPD1 161642Z 20011KT 16/01 A3006 RMK A01 T01570007  RH  036%=      5-min Rain = 0
KPD1 161643Z 20011KT 16/01 A3006 RMK A01 T01590008  RH  036%=      5-min Rain = 0
KPD1 161644Z 20013KT 16/01 A3006 RMK A01 T01590006  RH  035%=      5-min Rain = 0
KPD1 161645Z 19009KT 16/01 A3006 RMK A01 T01590007  RH  036%=      5-min Rain = 0
KPD1 161646Z 20011KT 16/01 A3006 RMK A01 T01610009  RH  036%=      5-min Rain = 0
KPD1 161647Z 20013KT 16/01 A3006 RMK A01 T01620006  RH  035%=      5-min Rain = 0
KPD1 161648Z 20013KT 16/00 A3006 RMK A01 T01600004  RH  035%=      5-min Rain = 0
KPD1 161649Z 20011KT 16/01 A3006 RMK A01 T01600005  RH  035%=      5-min Rain = 0
KPD1 161650Z 20009KT 16/00 A3006 RMK A01 T01600004  RH  035%=      5-min Rain = 0
KPD1 161651Z 20010G15KT 16/01 A3006 RMK A01 T01630008  RH  035%=      5-min Rain = 0
KPD1 161652Z 19013KT 17/01 A3006 RMK A01 T01650006  RH  034%=      5-min Rain = 0
KPD1 161653Z 19013KT 17/00 A3006 RMK A01 T01650004  RH  034%=      5-min Rain = 0
KPD1 161654Z 20013KT 16/00 A3006 RMK A01 T01640004  RH  034%=      5-min Rain = 0
KPD1 161655Z 20012KT 16/00 A3006 RMK A01 T01630003  RH  034%=      5-min Rain = 0
KPD1 161656Z 20009KT 16/00 A3006 RMK A01 T01620004  RH  034%=      5-min Rain = 0
KPD1 161657Z 20013KT 16/01 A3006 RMK A01 T01620006  RH  035%=      5-min Rain = 0
KPD1 161658Z 19010KT 16/01 A3006 RMK A01 T01630005  RH  034%=      5-min Rain = 0
KPD1 161659Z 19010KT 16/01 A3006 RMK A01 T01630006  RH  035%=      5-min Rain = 0
KPD1 161700Z 20012KT 17/01 A3006 RMK A01 T01650008  RH  035%=      5-min Rain = 0
KPD1 161701Z 21011KT 17/01 A3006 RMK A01 T01660005  RH  034%=      5-min Rain = 0
KPD1 161702Z 20014KT 17/01 A3006 RMK A01 T01650006  RH  034%=      5-min Rain = 0
KPD1 161703Z 19011KT 17/01 A3006 RMK A01 T01650005  RH  034%=      5-min Rain = 0
KPD1 161704Z 20012KT 17/01 A3006 RMK A01 T01650006  RH  034%=      5-min Rain = 0
KPD1 161705Z 20013KT 17/01 A3006 RMK A01 T01660006  RH  034%=      5-min Rain = 0
KPD1 161706Z 21013KT 17/01 A3006 RMK A01 T01670006  RH  034%=      5-min Rain = 0
KPD1 161707Z 20011KT 17/01 A3006 RMK A01 T01670006  RH  034%=      5-min Rain = 0
KPD1 161708Z 20009KT 17/01 A3005 RMK A01 T01680006  RH  034%=      5-min Rain = 0
KPD1 161709Z 19012KT 17/01 A3006 RMK A01 T01710008  RH  033%=      5-min Rain = 0
KPD1 161710Z 19010G15KT 17/01 A3005 RMK A01 T01720008  RH  033%=      5-min Rain = 0
KPD1 161711Z 19011KT 17/01 A3005 RMK A01 T01740007  RH  032%=      5-min Rain = 0
KPD1 161712Z 19011KT 17/01 A3005 RMK A01 T01730005  RH  032%=      5-min Rain = 0
KPD1 161713Z 20011KT 17/01 A3005 RMK A01 T01730006  RH  032%=      5-min Rain = 0
KPD1 161714Z 20012KT 17/01 A3005 RMK A01 T01740005  RH  032%=      5-min Rain = 0
KPD1 161715Z 20009KT 17/01 A3005 RMK A01 T01740006  RH  032%=      5-min Rain = 0
KPD1 161716Z 20009KT 18/01 A3005 RMK A01 T01760009  RH  032%=      5-min Rain = 0
KPD1 161717Z 20014KT 18/01 A3005 RMK A01 T01770007  RH  032%=      5-min Rain = 0
KPD1 161718Z 20012KT 18/01 A3005 RMK A01 T01770006  RH  031%=      5-min Rain = 0
KPD1 161719Z 20010G15KT 18/01 A3005 RMK A01 T01770007  RH  032%=      5-min Rain = 0
KPD1 161720Z 20011KT 18/01 A3005 RMK A01 T01770007  RH  032%=      5-min Rain = 0
KPD1 161721Z 21012KT 18/01 A3005 RMK A01 T01780005  RH  031%=      5-min Rain = 0
KPD1 161722Z 19012KT 18/00 A3005 RMK A01 T01770003  RH  031%=      5-min Rain = 0
KPD1 161723Z 19015KT 18/00 A3005 RMK A01 T01770004  RH  031%=      5-min Rain = 0
KPD1 161724Z 19013KT 18/00 A3005 RMK A01 T01760004  RH  031%=      5-min Rain = 0
KPD1 161725Z 20011KT 18/00 A3005 RMK A01 T01770004  RH  031%=      5-min Rain = 0
KPD1 161726Z 19012KT 18/01 A3005 RMK A01 T01760005  RH  031%=      5-min Rain = 0
KPD1 161727Z 20010KT 18/01 A3005 RMK A01 T01770006  RH  031%=      5-min Rain = 0
KPD1 161728Z 21009G15KT 18/01 A3005 RMK A01 T01790008  RH  032%=      5-min Rain = 0
KPD1 161729Z 20008KT 18/01 A3004 RMK A01 T01810009  RH  031%=      5-min Rain = 0
KPD1 161730Z 19013KT 18/01 A3004 RMK A01 T01830009  RH  031%=      5-min Rain = 0
KPD1 161731Z 19013KT 18/01 A3004 RMK A01 T01820007  RH  031%=      5-min Rain = 0
KPD1 161732Z 19012KT 18/01 A3004 RMK A01 T01800007  RH  031%=      5-min Rain = 0
KPD1 161733Z 19013KT 18/01 A3004 RMK A01 T01810008  RH  031%=      5-min Rain = 0
KPD1 161734Z 20014KT 18/01 A3004 RMK A01 T01810006  RH  031%=      5-min Rain = 0
KPD1 161735Z 19013KT 18/01 A3004 RMK A01 T01800005  RH  031%=      5-min Rain = 0
KPD1 161736Z 18012KT 18/01 A3004 RMK A01 T01800006  RH  031%=      5-min Rain = 0
KPD1 161737Z 20012KT 18/01 A3004 RMK A01 T01810006  RH  031%=      5-min Rain = 0
KPD1 161738Z 19009G17KT 18/01 A3004 RMK A01 T01820006  RH  031%=      5-min Rain = 0
KPD1 161739Z 19014KT 18/01 A3004 RMK A01 T01830008  RH  031%=      5-min Rain = 0
KPD1 161740Z 19013G19KT 18/01 A3004 RMK A01 T01840006  RH  030%=      5-min Rain = 0
KPD1 161741Z 19013G18KT 18/01 A3004 RMK A01 T01840007  RH  030%=      5-min Rain = 0
KPD1 161742Z 19013KT 18/01 A3004 RMK A01 T01840005  RH  030%=      5-min Rain = 0
KPD1 161743Z 19011KT 18/01 A3004 RMK A01 T01840007  RH  030%=      5-min Rain = 0
KPD1 161744Z 18009KT 18/01 A3003 RMK A01 T01840008  RH  031%=      5-min Rain = 0
KPD1 161745Z 19009G14KT 19/01 A3003 RMK A01 T01860008  RH  030%=      5-min Rain = 0
KPD1 161746Z 18009G14KT 19/01 A3003 RMK A01 T01880008  RH  030%=      5-min Rain = 0
KPD1 161747Z 18013KT 19/01 A3003 RMK A01 T01880008  RH  030%=      5-min Rain = 0
KPD1 161748Z 19012KT 19/01 A3003 RMK A01 T01890007  RH  029%=      5-min Rain = 0
KPD1 161749Z 19014G22KT 19/01 A3003 RMK A01 T01890007  RH  029%=      5-min Rain = 0
KPD1 161750Z 19015KT 19/00 A3003 RMK A01 T01870004  RH  029%=      5-min Rain = 0
KPD1 161751Z 19014KT 19/00 A3003 RMK A01 T01850004  RH  029%=      5-min Rain = 0
KPD1 161752Z 19015KT 18/00 A3003 RMK A01 T01840004  RH  030%=      5-min Rain = 0
KPD1 161753Z 19013KT 18/00 A3003 RMK A01 T01830003  RH  030%=      5-min Rain = 0
KPD1 161754Z 19013KT 18/01 A3003 RMK A01 T01830005  RH  030%=      5-min Rain = 0
KPD1 161755Z 19012KT 18/00 A3003 RMK A01 T01830004  RH  030%=      5-min Rain = 0
KPD1 161756Z 18010KT 19/01 A3003 RMK A01 T01850005  RH  030%=      5-min Rain = 0
KPD1 161757Z 19012KT 19/01 A3002 RMK A01 T01860005  RH  030%=      5-min Rain = 0
KPD1 161758Z 19014KT 19/00 A3002 RMK A01 T01870004  RH  029%=      5-min Rain = 0
KPD1 161759Z 20013KT 19/00 A3003 RMK A01 T01880003  RH  029%=      5-min Rain = 0
KPD1 161800Z 20014KT 19/00 A3003 RMK A01 T01870001  RH  029%=      5-min Rain = 0
KPD1 161801Z 19013KT 19/00 A3002 RMK A01 T01850000  RH  029%=      5-min Rain = 0
KPD1 161802Z 19013KT 18/00 A3002 RMK A01 T018400-0  RH  029%=      5-min Rain = 0
KPD1 161803Z 20012KT 19/00 A3002 RMK A01 T01850001  RH  029%=      5-min Rain = 0
KPD1 161804Z 20012KT 19/00 A3002 RMK A01 T01860001  RH  029%=      5-min Rain = 0
KPD1 161805Z 19013KT 19/00 A3002 RMK A01 T01860001  RH  029%=      5-min Rain = 0
KPD1 161806Z 20012KT 19/00 A3002 RMK A01 T01880004  RH  029%=      5-min Rain = 0
KPD1 161807Z 20013KT 19/00 A3002 RMK A01 T01890004  RH  029%=      5-min Rain = 0
KPD1 161808Z 19012KT 19/00 A3002 RMK A01 T01890003  RH  029%=      5-min Rain = 0
KPD1 161809Z 19011KT 19/00 A3002 RMK A01 T01880004  RH  029%=      5-min Rain = 0
KPD1 161810Z 19011KT 19/01 A3002 RMK A01 T01890006  RH  029%=      5-min Rain = 0
KPD1 161811Z 20012KT 19/01 A3002 RMK A01 T01910005  RH  029%=      5-min Rain = 0
KPD1 161812Z 21011KT 19/00 A3002 RMK A01 T01900003  RH  028%=      5-min Rain = 0
KPD1 161813Z 20008KT 19/01 A3002 RMK A01 T01900005  RH  029%=      5-min Rain = 0
KPD1 161814Z 20010KT 19/01 A3002 RMK A01 T01910006  RH  029%=      5-min Rain = 0
KPD1 161815Z 19010G15KT 19/01 A3002 RMK A01 T01920007  RH  029%=      5-min Rain = 0
KPD1 161816Z 20014KT 19/01 A3002 RMK A01 T01940007  RH  029%=      5-min Rain = 0
KPD1 161817Z 19009KT 19/01 A3002 RMK A01 T01940006  RH  028%=      5-min Rain = 0
KPD1 161818Z 19009KT 20/01 A3002 RMK A01 T01950009  RH  029%=      5-min Rain = 0
KPD1 161819Z 18010KT 20/01 A3002 RMK A01 T01960005  RH  028%=      5-min Rain = 0
KPD1 161820Z 18010KT 19/01 A3002 RMK A01 T01940006  RH  028%=      5-min Rain = 0
KPD1 161821Z 19011KT 19/01 A3001 RMK A01 T01940008  RH  029%=      5-min Rain = 0
KPD1 161822Z 18011KT 19/01 A3001 RMK A01 T01940007  RH  028%=      5-min Rain = 0
KPD1 161823Z 20011KT 19/01 A3001 RMK A01 T01930007  RH  029%=      5-min Rain = 0
KPD1 161824Z 20008KT 19/01 A3001 RMK A01 T01920006  RH  029%=      5-min Rain = 0
KPD1 161825Z 19010KT 19/01 A3001 RMK A01 T01920009  RH  029%=      5-min Rain = 0
KPD1 161826Z 20010KT 20/01 A3001 RMK A01 T01960012  RH  029%=      5-min Rain = 0
KPD1 161827Z 20011KT 20/01 A3001 RMK A01 T01970010  RH  029%=      5-min Rain = 0
KPD1 161828Z 19013KT 20/01 A3001 RMK A01 T01980010  RH  028%=      5-min Rain = 0
KPD1 161829Z 20013KT 20/01 A3001 RMK A01 T01970009  RH  028%=      5-min Rain = 0
KPD1 161830Z 19010KT 20/01 A3001 RMK A01 T01970009  RH  028%=      5-min Rain = 0
KPD1 161831Z 20009KT 20/01 A3001 RMK A01 T01980010  RH  028%=      5-min Rain = 0
KPD1 161832Z 20011G16KT 20/01 A30 RMK A01 T01990009  RH  028%=      5-min Rain = 0
KPD1 161833Z 20012KT 20/01 A30 RMK A01 T02000008  RH  028%=      5-min Rain = 0
KPD1 161834Z 18012KT 20/01 A30 RMK A01 T01990006  RH  027%=      5-min Rain = 0
KPD1 161835Z 17013KT 20/01 A30 RMK A01 T01990006  RH  027%=      5-min Rain = 0
KPD1 161836Z 18011KT 20/01 A30 RMK A01 T01990005  RH  027%=      5-min Rain = 0
KPD1 161837Z 18014KT 20/01 A30 RMK A01 T02010006  RH  027%=      5-min Rain = 0
KPD1 161838Z 18011KT 20/00 A30 RMK A01 T02000004  RH  027%=      5-min Rain = 0
KPD1 161839Z 18014KT 20/01 A30 RMK A01 T02000006  RH  027%=      5-min Rain = 0
KPD1 161840Z 19010KT 20/01 A30 RMK A01 T02000005  RH  027%=      5-min Rain = 0
KPD1 161841Z 19010KT 20/01 A30 RMK A01 T02010006  RH  027%=      5-min Rain = 0
KPD1 161842Z 18012KT 20/01 A30 RMK A01 T02020007  RH  027%=      5-min Rain = 0
KPD1 161843Z 18012G19KT 20/01 A30 RMK A01 T02030007  RH  027%=      5-min Rain = 0
KPD1 161844Z 19011KT 21/01 A2999 RMK A01 T02050008  RH  027%=      5-min Rain = 0
KPD1 161845Z 19013KT 21/01 A2999 RMK A01 T02050007  RH  027%=      5-min Rain = 0
KPD1 161846Z 19012KT 21/01 A2999 RMK A01 T02050006  RH  026%=      5-min Rain = 0
KPD1 161847Z 20011KT 21/01 A2999 RMK A01 T02050005  RH  026%=      5-min Rain = 0
KPD1 161848Z 19010KT 21/01 A2999 RMK A01 T02050007  RH  027%=      5-min Rain = 0
KPD1 161849Z 18009KT 21/01 A2999 RMK A01 T02070006  RH  026%=      5-min Rain = 0
KPD1 161850Z 20008KT 21/01 A2999 RMK A01 T02080008  RH  026%=      5-min Rain = 0
KPD1 161851Z 22011KT 21/01 A2999 RMK A01 T02100006  RH  026%=      5-min Rain = 0
KPD1 161852Z 20012KT 21/00 A2999 RMK A01 T02080002  RH  025%=      5-min Rain = 0
KPD1 161853Z 20013KT 21/00 A2999 RMK A01 T02050002  RH  026%=      5-min Rain = 0
KPD1 161854Z 20011KT 21/00 A2999 RMK A01 T02050002  RH  026%=      5-min Rain = 0
KPD1 161855Z 21010KT 21/00 A2998 RMK A01 T02060001  RH  025%=      5-min Rain = 0
KPD1 161856Z 19011KT 21/00 A2998 RMK A01 T02070002  RH  025%=      5-min Rain = 0
KPD1 161857Z 18011KT 21/00 A2998 RMK A01 T02080003  RH  025%=      5-min Rain = 0
KPD1 161858Z 18012KT 21/00 A2998 RMK A01 T02090002  RH  025%=      5-min Rain = 0
KPD1 161859Z 19012KT 21/00 A2998 RMK A01 T02090002  RH  025%=      5-min Rain = 0
KPD1 161900Z 18013KT 21/00 A2998 RMK A01 T02090001  RH  025%=      5-min Rain = 0
KPD1 161901Z 18010KT 21/00 A2998 RMK A01 T02080000  RH  025%=      5-min Rain = 0
KPD1 161902Z 18011G16KT 21/00 A2998 RMK A01 T02090001  RH  025%=      5-min Rain = 0
KPD1 161903Z 18011KT 21/M00 A2998 RMK A01 T02101001  RH  024%=      5-min Rain = 0
KPD1 161904Z 20008KT 21/00 A2998 RMK A01 T02110001  RH  025%=      5-min Rain = 0
KPD1 161905Z 19008KT 21/00 A2998 RMK A01 T02130003  RH  025%=      5-min Rain = 0
KPD1 161906Z 20008KT 22/01 A2998 RMK A01 T02150005  RH  025%=      5-min Rain = 0
KPD1 161907Z 18013KT 22/00 A2998 RMK A01 T02160001  RH  024%=      5-min Rain = 0
KPD1 161908Z 18011KT 22/00 A2998 RMK A01 T021500-0  RH  024%=      5-min Rain = 0
KPD1 161909Z 19009KT 21/00 A2998 RMK A01 T02140000  RH  024%=      5-min Rain = 0
KPD1 161910Z 20009KT 22/00 A2998 RMK A01 T02150001  RH  024%=      5-min Rain = 0
KPD1 161911Z 20011KT 22/00 A2998 RMK A01 T02150001  RH  024%=      5-min Rain = 0
KPD1 161912Z 19012KT 22/00 A2998 RMK A01 T02160001  RH  024%=      5-min Rain = 0
KPD1 161913Z 19013KT 21/M00 A2998 RMK A01 T02141002  RH  024%=      5-min Rain = 0
KPD1 161914Z 20013KT 21/M00 A2998 RMK A01 T02121003  RH  024%=      5-min Rain = 0
KPD1 161915Z 20012KT 21/M00 A2998 RMK A01 T02111002  RH  024%=      5-min Rain = 0
KPD1 161916Z 20011KT 21/M00 A2998 RMK A01 T02111001  RH  024%=      5-min Rain = 0
KPD1 161917Z 21011KT 21/00 A2998 RMK A01 T02110000  RH  024%=      5-min Rain = 0
KPD1 161918Z 18010G16KT 21/00 A2997 RMK A01 T02120001  RH  024%=      5-min Rain = 0
KPD1 161919Z 17010KT 21/00 A2997 RMK A01 T02140002  RH  024%=      5-min Rain = 0
KPD1 161920Z 19012G17KT 21/00 A2997 RMK A01 T02140000  RH  024%=      5-min Rain = 0
KPD1 161921Z 19012KT 21/M00 A2997 RMK A01 T02141001  RH  024%=      5-min Rain = 0
KPD1 161922Z 20013KT 21/00 A2997 RMK A01 T021300-0  RH  024%=      5-min Rain = 0
KPD1 161923Z 19009KT 21/M00 A2997 RMK A01 T02131001  RH  024%=      5-min Rain = 0
KPD1 161924Z 20009KT 21/00 A2997 RMK A01 T02130002  RH  024%=      5-min Rain = 0
KPD1 161925Z 18008KT 22/00 A2997 RMK A01 T02150003  RH  024%=      5-min Rain = 0
KPD1 161926Z 18011KT 22/00 A2997 RMK A01 T02170004  RH  024%=      5-min Rain = 0
KPD1 161927Z 19013KT 22/00 A2997 RMK A01 T02180002  RH  024%=      5-min Rain = 0
KPD1 161928Z 19013KT 22/00 A2997 RMK A01 T02160001  RH  024%=      5-min Rain = 0
KPD1 161929Z 18012KT 22/00 A2997 RMK A01 T02150001  RH  024%=      5-min Rain = 0
KPD1 161930Z 19011KT 21/00 A2997 RMK A01 T021300-0  RH  024%=      5-min Rain = 0
KPD1 161931Z 20012G17KT 21/00 A2997 RMK A01 T02130000  RH  024%=      5-min Rain = 0
KPD1 161932Z 21012KT 21/M00 A2997 RMK A01 T02131001  RH  024%=      5-min Rain = 0
KPD1 161933Z 20012KT 21/M00 A2997 RMK A01 T02121002  RH  024%=      5-min Rain = 0
KPD1 161934Z 19012KT 21/00 A2997 RMK A01 T02110000  RH  024%=      5-min Rain = 0
KPD1 161935Z 20014KT 21/00 A2997 RMK A01 T02140003  RH  024%=      5-min Rain = 0
KPD1 161936Z 20012KT 22/00 A2997 RMK A01 T02150001  RH  024%=      5-min Rain = 0
KPD1 161937Z 20012KT 21/00 A2996 RMK A01 T02140001  RH  024%=      5-min Rain = 0
KPD1 161938Z 16011KT 22/00 A2996 RMK A01 T02150001  RH  024%=      5-min Rain = 0
KPD1 161939Z 18011KT 22/00 A2996 RMK A01 T02160002  RH  024%=      5-min Rain = 0
KPD1 161940Z 19012KT 22/00 A2996 RMK A01 T02180001  RH  024%=      5-min Rain = 0
KPD1 161941Z 20012KT 22/00 A2996 RMK A01 T02180002  RH  024%=      5-min Rain = 0
KPD1 161942Z 19010KT 22/00 A2996 RMK A01 T02190002  RH  024%=      5-min Rain = 0
KPD1 161943Z 19009KT 22/00 A2996 RMK A01 T02190003  RH  024%=      5-min Rain = 0
KPD1 161944Z 18010KT 22/00 A2996 RMK A01 T02210003  RH  023%=      5-min Rain = 0
KPD1 161945Z 18009KT 22/00 A2996 RMK A01 T02210003  RH  023%=      5-min Rain = 0
KPD1 161946Z 16010KT 22/00 A2996 RMK A01 T02210003  RH  023%=      5-min Rain = 0
KPD1 161947Z 17009KT 22/00 A2996 RMK A01 T02220004  RH  023%=      5-min Rain = 0
KPD1 161948Z 18006KT 22/01 A2996 RMK A01 T02230005  RH  024%=      5-min Rain = 0
KPD1 161949Z 19010G15KT 23/01 A2996 RMK A01 T02250007  RH  024%=      5-min Rain = 0
KPD1 161950Z 18011KT 23/00 A2996 RMK A01 T02280004  RH  023%=      5-min Rain = 0
KPD1 161951Z 19011KT 23/00 A2996 RMK A01 T02270003  RH  023%=      5-min Rain = 0
KPD1 161952Z 20012KT 23/00 A2996 RMK A01 T02290001  RH  022%=      5-min Rain = 0
KPD1 161953Z 20010KT 23/00 A2996 RMK A01 T022700-0  RH  022%=      5-min Rain = 0
KPD1 161954Z 19010G15KT 23/00 A2996 RMK A01 T02250001  RH  023%=      5-min Rain = 0
KPD1 161955Z 17007KT 22/00 A2996 RMK A01 T02230002  RH  023%=      5-min Rain = 0
KPD1 161956Z 16013KT 22/00 A2995 RMK A01 T02230003  RH  023%=      5-min Rain = 0
KPD1 161957Z 19012KT 22/00 A2996 RMK A01 T02210001  RH  023%=      5-min Rain = 0
KPD1 161958Z 19012G17KT 22/00 A2996 RMK A01 T02200002  RH  024%=      5-min Rain = 0
KPD1 161959Z 19012G17KT 22/00 A2995 RMK A01 T02190002  RH  024%=      5-min Rain = 0
KPD1 162000Z 20012KT 22/00 A2996 RMK A01 T02170001  RH  024%=      5-min Rain = 0
KPD1 162001Z 20012KT 22/00 A2995 RMK A01 T02160002  RH  024%=      5-min Rain = 0
KPD1 162002Z 18008KT 22/00 A2995 RMK A01 T02150004  RH  024%=      5-min Rain = 0
KPD1 162003Z 20008KT 22/01 A2995 RMK A01 T02170005  RH  024%=      5-min Rain = 0
KPD1 162004Z 18010G16KT 22/01 A2995 RMK A01 T02180005  RH  024%=      5-min Rain = 0
KPD1 162005Z 18011KT 22/00 A2995 RMK A01 T02190004  RH  024%=      5-min Rain = 0
KPD1 162006Z 17011KT 22/00 A2995 RMK A01 T02170003  RH  024%=      5-min Rain = 0
KPD1 162007Z 17012KT 22/00 A2995 RMK A01 T02150002  RH  024%=      5-min Rain = 0
KPD1 162008Z 18012KT 21/00 A2995 RMK A01 T02130001  RH  024%=      5-min Rain = 0
KPD1 162009Z 20011KT 21/M00 A2995 RMK A01 T02111001  RH  024%=      5-min Rain = 0
KPD1 162010Z 19013KT 21/M00 A2995 RMK A01 T02101001  RH  025%=      5-min Rain = 0
KPD1 162011Z 18014KT 21/M00 A2995 RMK A01 T02081002  RH  025%=      5-min Rain = 0
KPD1 162012Z 20012KT 21/M00 A2995 RMK A01 T02071002  RH  025%=      5-min Rain = 0
KPD1 162013Z 19011KT 21/M00 A2995 RMK A01 T02061001  RH  025%=      5-min Rain = 0
KPD1 162014Z 18009KT 21/00 A2995 RMK A01 T02060001  RH  025%=      5-min Rain = 0
KPD1 162015Z 18011KT 21/00 A2995 RMK A01 T02060002  RH  025%=      5-min Rain = 0
KPD1 162016Z 19009KT 21/00 A2995 RMK A01 T02060000  RH  025%=      5-min Rain = 0
KPD1 162017Z 19010KT 21/00 A2995 RMK A01 T02070002  RH  025%=      5-min Rain = 0
KPD1 162018Z 17010KT 21/00 A2995 RMK A01 T02060001  RH  025%=      5-min Rain = 0
KPD1 162019Z 18008KT 21/00 A2995 RMK A01 T02060002  RH  025%=      5-min Rain = 0
KPD1 162020Z 17012KT 21/00 A2995 RMK A01 T02060001  RH  025%=      5-min Rain = 0
KPD1 162021Z 17010KT 21/M00 A2995 RMK A01 T02051001  RH  025%=      5-min Rain = 0
KPD1 162022Z 18011KT 20/00 A2995 RMK A01 T02040001  RH  026%=      5-min Rain = 0
KPD1 162023Z 18013KT 20/00 A2995 RMK A01 T02030000  RH  026%=      5-min Rain = 0
KPD1 162024Z 18009KT 20/00 A2995 RMK A01 T02020001  RH  026%=      5-min Rain = 0
KPD1 162025Z 19011KT 20/00 A2995 RMK A01 T02020001  RH  026%=      5-min Rain = 0
KPD1 162026Z 19007KT 20/00 A2994 RMK A01 T02010002  RH  026%=      5-min Rain = 0
KPD1 162027Z 18008KT 20/00 A2994 RMK A01 T02010002  RH  026%=      5-min Rain = 0
KPD1 162028Z 17012KT 20/00 A2994 RMK A01 T02020002  RH  026%=      5-min Rain = 0
KPD1 162029Z 18010KT 20/00 A2994 RMK A01 T02020001  RH  026%=      5-min Rain = 0
KPD1 162030Z 16013KT 20/00 A2994 RMK A01 T02010000  RH  026%=      5-min Rain = 0
KPD1 162031Z 17012KT 20/00 A2994 RMK A01 T02010000  RH  026%=      5-min Rain = 0
KPD1 162032Z 17009KT 20/00 A2994 RMK A01 T02010001  RH  026%=      5-min Rain = 0
KPD1 162033Z 17009KT 20/00 A2994 RMK A01 T02000001  RH  026%=      5-min Rain = 0
KPD1 162034Z 18008KT 20/00 A2994 RMK A01 T02010003  RH  027%=      5-min Rain = 0
KPD1 162035Z 18007KT 20/00 A2994 RMK A01 T02020003  RH  026%=      5-min Rain = 0
KPD1 162036Z 19008KT 20/00 A2994 RMK A01 T02020003  RH  026%=      5-min Rain = 0
KPD1 162037Z 18008G13KT 20/00 A2994 RMK A01 T02030004  RH  026%=      5-min Rain = 0
KPD1 162038Z 19012KT 20/00 A2994 RMK A01 T02040004  RH  026%=      5-min Rain = 0
KPD1 162039Z 19012KT 20/00 A2994 RMK A01 T02030002  RH  026%=      5-min Rain = 0
KPD1 162040Z 18011G16KT 20/00 A2994 RMK A01 T02020001  RH  026%=      5-min Rain = 0
KPD1 162041Z 17011KT 20/00 A2994 RMK A01 T02010001  RH  026%=      5-min Rain = 0
KPD1 162042Z 16011KT 20/00 A2994 RMK A01 T02010001  RH  026%=      5-min Rain = 0
KPD1 162043Z 16009KT 20/00 A2994 RMK A01 T02010001  RH  026%=      5-min Rain = 0
KPD1 162044Z 17010KT 20/00 A2994 RMK A01 T02010000  RH  026%=      5-min Rain = 0
KPD1 162045Z 18009KT 20/00 A2994 RMK A01 T02010000  RH  026%=      5-min Rain = 0
KPD1 162046Z 18007KT 20/00 A2994 RMK A01 T02010001  RH  026%=      5-min Rain = 0
KPD1 162047Z 18008G13KT 20/00 A2994 RMK A01 T02000002  RH  027%=      5-min Rain = 0
KPD1 162048Z 17011KT 20/00 A2994 RMK A01 T020100-0  RH  026%=      5-min Rain = 0
KPD1 162049Z 17012KT 20/M00 A2994 RMK A01 T01991002  RH  026%=      5-min Rain = 0
KPD1 162050Z 18012KT 20/M00 A2994 RMK A01 T01991001  RH  026%=      5-min Rain = 0
KPD1 162051Z 18011KT 20/M00 A2994 RMK A01 T01981001  RH  026%=      5-min Rain = 0
KPD1 162052Z 18013KT 20/M00 A2994 RMK A01 T01981001  RH  026%=      5-min Rain = 0
KPD1 162053Z 18012KT 20/M00 A2994 RMK A01 T01971002  RH  026%=      5-min Rain = 0
KPD1 162054Z 18010KT 20/M00 A2994 RMK A01 T01961002  RH  026%=      5-min Rain = 0
KPD1 162055Z 17009KT 20/M00 A2994 RMK A01 T01961001  RH  027%=      5-min Rain = 0
KPD1 162056Z 18011KT 20/M00 A2994 RMK A01 T01961001  RH  027%=      5-min Rain = 0
KPD1 162057Z 19008G13KT 20/00 A2994 RMK A01 T019600-0  RH  027%=      5-min Rain = 0
KPD1 162058Z 19009KT 20/00 A2994 RMK A01 T01960000  RH  027%=      5-min Rain = 0
KPD1 162059Z 19007KT 20/00 A2994 RMK A01 T01960001  RH  027%=      5-min Rain = 0
KPD1 162100Z 18008KT 20/00 A2994 RMK A01 T01960001  RH  027%=      5-min Rain = 0
KPD1 162101Z 18008KT 20/00 A2994 RMK A01 T01970002  RH  027%=      5-min Rain = 0
KPD1 162102Z 19009KT 20/00 A2994 RMK A01 T01970001  RH  027%=      5-min Rain = 0
KPD1 162103Z 19007KT 20/00 A2994 RMK A01 T01970002  RH  027%=      5-min Rain = 0
KPD1 162104Z 17007KT 20/00 A2994 RMK A01 T01970003  RH  027%=      5-min Rain = 0
KPD1 162105Z 17008KT 20/00 A2994 RMK A01 T01970004  RH  027%=      5-min Rain = 0
KPD1 162106Z 18008KT 20/01 A2994 RMK A01 T01970005  RH  028%=      5-min Rain = 0
KPD1 162107Z 18010KT 20/01 A2994 RMK A01 T01960005  RH  028%=      5-min Rain = 0
KPD1 162108Z 18008KT 20/00 A2994 RMK A01 T01960004  RH  028%=      5-min Rain = 0
KPD1 162109Z 19008G13KT 20/01 A2994 RMK A01 T01950005  RH  028%=      5-min Rain = 0
KPD1 162110Z 18010KT 19/01 A2994 RMK A01 T01940005  RH  028%=      5-min Rain = 0
KPD1 162111Z 19011KT 19/01 A2994 RMK A01 T01940005  RH  028%=      5-min Rain = 0
KPD1 162112Z 19007KT 19/01 A2994 RMK A01 T01940005  RH  028%=      5-min Rain = 0
KPD1 162113Z 18010KT 19/01 A2994 RMK A01 T01940006  RH  028%=      5-min Rain = 0
KPD1 162114Z 19011KT 19/01 A2994 RMK A01 T01940005  RH  028%=      5-min Rain = 0
KPD1 162115Z 19011KT 19/00 A2994 RMK A01 T01940004  RH  028%=      5-min Rain = 0
KPD1 162116Z 18011KT 19/00 A2994 RMK A01 T01930004  RH  028%=      5-min Rain = 0
KPD1 162117Z 18014KT 19/00 A2994 RMK A01 T01920003  RH  028%=      5-min Rain = 0
KPD1 162118Z 18013KT 19/00 A2993 RMK A01 T01920002  RH  028%=      5-min Rain = 0
KPD1 162119Z 19010KT 19/00 A2993 RMK A01 T01910002  RH  028%=      5-min Rain = 0
KPD1 162120Z 18012KT 19/00 A2993 RMK A01 T01910002  RH  028%=      5-min Rain = 0
KPD1 162121Z 19012KT 19/00 A2993 RMK A01 T01910002  RH  028%=      5-min Rain = 0
KPD1 162122Z 18012KT 19/00 A2993 RMK A01 T01900002  RH  028%=      5-min Rain = 0
KPD1 162123Z 18012KT 19/00 A2993 RMK A01 T01910002  RH  028%=      5-min Rain = 0
KPD1 162124Z 18010KT 19/00 A2993 RMK A01 T01900003  RH  028%=      5-min Rain = 0
KPD1 162125Z 18011G17KT 19/00 A2993 RMK A01 T01900003  RH  028%=      5-min Rain = 0
KPD1 162126Z 17010KT 19/00 A2993 RMK A01 T01910003  RH  028%=      5-min Rain = 0
KPD1 162127Z 18010KT 19/00 A2993 RMK A01 T01910003  RH  028%=      5-min Rain = 0
KPD1 162128Z 18012KT 19/00 A2993 RMK A01 T01910003  RH  028%=      5-min Rain = 0
KPD1 162129Z 18013KT 19/00 A2993 RMK A01 T01910001  RH  028%=      5-min Rain = 0
KPD1 162130Z 18013KT 19/00 A2993 RMK A01 T01910001  RH  028%=      5-min Rain = 0
KPD1 162131Z 18013KT 19/00 A2993 RMK A01 T01900000  RH  028%=      5-min Rain = 0
KPD1 162132Z 17011KT 19/00 A2993 RMK A01 T01910001  RH  028%=      5-min Rain = 0
KPD1 162133Z 18011KT 19/00 A2993 RMK A01 T01910001  RH  028%=      5-min Rain = 0
KPD1 162134Z 18010KT 19/00 A2993 RMK A01 T01910001  RH  028%=      5-min Rain = 0
KPD1 162135Z 19011KT 19/00 A2993 RMK A01 T01910000  RH  028%=      5-min Rain = 0
KPD1 162136Z 19012G17KT 19/00 A2993 RMK A01 T01910000  RH  028%=      5-min Rain = 0
KPD1 162137Z 19011KT 19/00 A2993 RMK A01 T01910000  RH  028%=      5-min Rain = 0
KPD1 162138Z 18011KT 19/00 A2993 RMK A01 T01910002  RH  028%=      5-min Rain = 0
KPD1 162139Z 16011KT 19/00 A2993 RMK A01 T01910001  RH  028%=      5-min Rain = 0
KPD1 162140Z 18010KT 19/00 A2994 RMK A01 T01910000  RH  028%=      5-min Rain = 0
KPD1 162141Z 17012KT 19/00 A2994 RMK A01 T01910000  RH  028%=      5-min Rain = 0
KPD1 162142Z 18010KT 19/M00 A2994 RMK A01 T01901001  RH  028%=      5-min Rain = 0
KPD1 162143Z 17009KT 19/00 A2994 RMK A01 T01900000  RH  028%=      5-min Rain = 0
KPD1 162144Z 18012KT 19/00 A2994 RMK A01 T01900001  RH  028%=      5-min Rain = 0
KPD1 162145Z 18012KT 19/00 A2994 RMK A01 T01900000  RH  028%=      5-min Rain = 0
KPD1 162146Z 18012KT 19/00 A2994 RMK A01 T019000-0  RH  028%=      5-min Rain = 0
KPD1 162147Z 18009KT 19/00 A2994 RMK A01 T018900-0  RH  028%=      5-min Rain = 0
KPD1 162148Z 18009KT 19/00 A2994 RMK A01 T018900-0  RH  028%=      5-min Rain = 0
KPD1 162149Z 17010KT 19/00 A2994 RMK A01 T01900001  RH  028%=      5-min Rain = 0
KPD1 162150Z 18010KT 19/00 A2994 RMK A01 T01890000  RH  028%=      5-min Rain = 0
KPD1 162151Z 18009KT 19/00 A2994 RMK A01 T01900001  RH  028%=      5-min Rain = 0
KPD1 162152Z 18008KT 19/00 A2994 RMK A01 T01890001  RH  028%=      5-min Rain = 0
KPD1 162153Z 18010KT 19/00 A2994 RMK A01 T01890001  RH  028%=      5-min Rain = 0
KPD1 162154Z 19011KT 19/00 A2994 RMK A01 T01890001  RH  028%=      5-min Rain = 0
KPD1 162155Z 19009KT 19/00 A2994 RMK A01 T01890001  RH  028%=      5-min Rain = 0
KPD1 162156Z 18008KT 19/00 A2994 RMK A01 T01900002  RH  028%=      5-min Rain = 0
KPD1 162157Z 19007KT 19/00 A2994 RMK A01 T01900003  RH  028%=      5-min Rain = 0
KPD1 162158Z 18007KT 19/00 A2994 RMK A01 T01900003  RH  029%=      5-min Rain = 0
KPD1 162159Z 19007KT 19/00 A2994 RMK A01 T01900004  RH  029%=      5-min Rain = 0
KPD1 162200Z 18006KT 19/00 A2994 RMK A01 T01900004  RH  029%=      5-min Rain = 0
KPD1 162201Z 17010KT 19/01 A2994 RMK A01 T01900005  RH  029%=      5-min Rain = 0
KPD1 162202Z 17008KT 19/00 A2994 RMK A01 T01890004  RH  029%=      5-min Rain = 0
KPD1 162203Z 18010KT 19/00 A2994 RMK A01 T01880004  RH  029%=      5-min Rain = 0
KPD1 162204Z 19008KT 19/00 A2994 RMK A01 T01880004  RH  029%=      5-min Rain = 0
KPD1 162205Z 18008KT 19/01 A2994 RMK A01 T01870005  RH  029%=      5-min Rain = 0
KPD1 162206Z 17010KT 19/01 A2994 RMK A01 T01870005  RH  029%=      5-min Rain = 0
KPD1 162207Z 19011KT 19/01 A2994 RMK A01 T01870005  RH  029%=      5-min Rain = 0
KPD1 162208Z 19011KT 19/00 A2994 RMK A01 T01860004  RH  029%=      5-min Rain = 0
KPD1 162209Z 19010KT 19/01 A2994 RMK A01 T01860005  RH  030%=      5-min Rain = 0
KPD1 162210Z 18009KT 19/01 A2994 RMK A01 T01860005  RH  030%=      5-min Rain = 0
KPD1 162211Z 19010G15KT 19/01 A2994 RMK A01 T01850005  RH  030%=      5-min Rain = 0
KPD1 162212Z 19014KT 19/01 A2994 RMK A01 T01850005  RH  030%=      5-min Rain = 0
KPD1 162213Z 19013KT 18/00 A2994 RMK A01 T01840004  RH  030%=      5-min Rain = 0
KPD1 162214Z 18009KT 18/00 A2994 RMK A01 T01830003  RH  030%=      5-min Rain = 0
KPD1 162215Z 19010KT 18/00 A2994 RMK A01 T01830004  RH  030%=      5-min Rain = 0
KPD1 162216Z 18007KT 18/00 A2994 RMK A01 T01820004  RH  030%=      5-min Rain = 0
KPD1 162217Z 18010KT 18/00 A2994 RMK A01 T01820004  RH  030%=      5-min Rain = 0
KPD1 162218Z 18012KT 18/00 A2994 RMK A01 T01820004  RH  030%=      5-min Rain = 0
KPD1 162219Z 18010KT 18/00 A2994 RMK A01 T01810003  RH  030%=      5-min Rain = 0
KPD1 162220Z 17008KT 18/00 A2994 RMK A01 T01810003  RH  030%=      5-min Rain = 0
KPD1 162221Z 17010KT 18/00 A2994 RMK A01 T01810004  RH  030%=      5-min Rain = 0
KPD1 162222Z 18012KT 18/00 A2994 RMK A01 T01800004  RH  030%=      5-min Rain = 0
KPD1 162223Z 18011KT 18/00 A2994 RMK A01 T01790003  RH  030%=      5-min Rain = 0
KPD1 162224Z 18009KT 18/00 A2994 RMK A01 T01790003  RH  031%=      5-min Rain = 0
KPD1 162225Z 17010KT 18/00 A2994 RMK A01 T01790004  RH  031%=      5-min Rain = 0
KPD1 162226Z 16011KT 18/00 A2994 RMK A01 T01780004  RH  031%=      5-min Rain = 0
KPD1 162227Z 17012KT 18/00 A2995 RMK A01 T01780004  RH  031%=      5-min Rain = 0
KPD1 162228Z 16011KT 18/00 A2994 RMK A01 T01780003  RH  031%=      5-min Rain = 0
KPD1 162229Z 17012KT 18/00 A2995 RMK A01 T01780003  RH  031%=      5-min Rain = 0
KPD1 162230Z 17008KT 18/00 A2994 RMK A01 T01780003  RH  031%=      5-min Rain = 0
KPD1 162231Z 18010KT 18/00 A2994 RMK A01 T01770003  RH  031%=      5-min Rain = 0
KPD1 162232Z 18010KT 18/00 A2994 RMK A01 T01770003  RH  031%=      5-min Rain = 0
KPD1 162233Z 19010KT 18/00 A2995 RMK A01 T01770003  RH  031%=      5-min Rain = 0
KPD1 162234Z 18009KT 18/00 A2995 RMK A01 T01770003  RH  031%=      5-min Rain = 0
KPD1 162235Z 17009KT 18/00 A2995 RMK A01 T01760003  RH  031%=      5-min Rain = 0
KPD1 162236Z 17008KT 18/00 A2995 RMK A01 T01760003  RH  031%=      5-min Rain = 0
KPD1 162237Z 17009KT 18/00 A2994 RMK A01 T01770004  RH  031%=      5-min Rain = 0
KPD1 162238Z 16010KT 18/00 A2995 RMK A01 T01760003  RH  031%=      5-min Rain = 0
KPD1 162239Z 16010KT 18/00 A2994 RMK A01 T01760003  RH  031%=      5-min Rain = 0
KPD1 162240Z 17012KT 18/00 A2994 RMK A01 T01750002  RH  031%=      5-min Rain = 0
KPD1 162241Z 17009KT 18/00 A2994 RMK A01 T01750002  RH  031%=      5-min Rain = 0
KPD1 162242Z 16008KT 18/00 A2994 RMK A01 T01750001  RH  031%=      5-min Rain = 0
KPD1 162243Z 18012KT 18/00 A2994 RMK A01 T01750002  RH  031%=      5-min Rain = 0
KPD1 162244Z 18011KT 17/00 A2994 RMK A01 T01740002  RH  031%=      5-min Rain = 0
KPD1 162245Z 17008KT 17/00 A2994 RMK A01 T01740002  RH  031%=      5-min Rain = 0
KPD1 162246Z 17009KT 17/00 A2994 RMK A01 T01740002  RH  031%=      5-min Rain = 0
KPD1 162247Z 17009KT 17/00 A2994 RMK A01 T01740002  RH  031%=      5-min Rain = 0
KPD1 162248Z 17010KT 17/00 A2994 RMK A01 T01740002  RH  031%=      5-min Rain = 0
KPD1 162249Z 17009KT 17/00 A2995 RMK A01 T01740002  RH  031%=      5-min Rain = 0
KPD1 162250Z 16011KT 17/00 A2995 RMK A01 T01740003  RH  031%=      5-min Rain = 0
KPD1 162251Z 16011KT 18/00 A2995 RMK A01 T01750004  RH  031%=      5-min Rain = 0
KPD1 162252Z 17011KT 18/00 A2995 RMK A01 T01760004  RH  031%=      5-min Rain = 0
KPD1 162253Z 17010KT 18/00 A2995 RMK A01 T01760004  RH  031%=      5-min Rain = 0
KPD1 162254Z 17010KT 18/01 A2995 RMK A01 T01770005  RH  031%=      5-min Rain = 0
KPD1 162255Z 17007KT 18/01 A2995 RMK A01 T01770005  RH  031%=      5-min Rain = 0
KPD1 162256Z 18008KT 18/01 A2995 RMK A01 T01770005  RH  031%=      5-min Rain = 0
KPD1 162257Z 16010KT 18/01 A2995 RMK A01 T01770005  RH  031%=      5-min Rain = 0
KPD1 162258Z 16008KT 18/01 A2995 RMK A01 T01760005  RH  032%=      5-min Rain = 0
KPD1 162259Z 17007KT 18/01 A2995 RMK A01 T01750006  RH  032%=      5-min Rain = 0
KPD1 162300Z 17007KT 18/01 A2994 RMK A01 T01750006  RH  032%=      5-min Rain = 0
KPD1 162301Z 16008KT 17/01 A2995 RMK A01 T01740006  RH  032%=      5-min Rain = 0
KPD1 162302Z 16007KT 17/01 A2995 RMK A01 T01730006  RH  032%=      5-min Rain = 0
KPD1 162303Z 16008KT 17/01 A2995 RMK A01 T01730007  RH  033%=      5-min Rain = 0
KPD1 162304Z 16008KT 17/01 A2995 RMK A01 T01720006  RH  033%=      5-min Rain = 0
KPD1 162305Z 16008KT 17/01 A2995 RMK A01 T01720007  RH  033%=      5-min Rain = 0
KPD1 162306Z 16009KT 17/01 A2995 RMK A01 T01710007  RH  033%=      5-min Rain = 0
KPD1 162307Z 16009KT 17/01 A2995 RMK A01 T01700006  RH  033%=      5-min Rain = 0
KPD1 162308Z 17008KT 17/01 A2995 RMK A01 T01700006  RH  033%=      5-min Rain = 0
KPD1 162309Z 16007KT 17/01 A2995 RMK A01 T01700007  RH  033%=      5-min Rain = 0
KPD1 162310Z 16007KT 17/01 A2995 RMK A01 T01690007  RH  033%=      5-min Rain = 0
KPD1 162311Z 16008KT 17/01 A2995 RMK A01 T01690008  RH  034%=      5-min Rain = 0
KPD1 162312Z 16008KT 17/01 A2995 RMK A01 T01680008  RH  034%=      5-min Rain = 0
KPD1 162313Z 16008KT 17/01 A2995 RMK A01 T01680007  RH  034%=      5-min Rain = 0
KPD1 162314Z 16008KT 17/01 A2995 RMK A01 T01680008  RH  034%=      5-min Rain = 0
KPD1 162315Z 17008KT 17/01 A2995 RMK A01 T01680008  RH  034%=      5-min Rain = 0
KPD1 162316Z 17007KT 17/01 A2995 RMK A01 T01670008  RH  034%=      5-min Rain = 0
KPD1 162317Z 17008KT 17/01 A2995 RMK A01 T01670008  RH  034%=      5-min Rain = 0
KPD1 162318Z 16008KT 17/01 A2995 RMK A01 T01670009  RH  034%=      5-min Rain = 0
KPD1 162319Z 16008KT 17/01 A2995 RMK A01 T01660008  RH  034%=      5-min Rain = 0
KPD1 162320Z 16009KT 17/01 A2995 RMK A01 T01660008  RH  034%=      5-min Rain = 0
KPD1 162321Z 16009KT 17/01 A2994 RMK A01 T01660008  RH  034%=      5-min Rain = 0
KPD1 162322Z 16008KT 17/01 A2994 RMK A01 T01660008  RH  034%=      5-min Rain = 0
KPD1 162323Z 16007KT 17/01 A2994 RMK A01 T01660009  RH  035%=      5-min Rain = 0
KPD1 162324Z 16007KT 17/01 A2994 RMK A01 T01650008  RH  035%=      5-min Rain = 0
KPD1 162325Z 16006KT 16/01 A2994 RMK A01 T01640008  RH  035%=      5-min Rain = 0
KPD1 162326Z 15007KT 16/01 A2995 RMK A01 T01640008  RH  035%=      5-min Rain = 0
KPD1 162327Z 16006KT 16/01 A2995 RMK A01 T01630009  RH  035%=      5-min Rain = 0
KPD1 162328Z 15007KT 16/01 A2995 RMK A01 T01630008  RH  035%=      5-min Rain = 0
KPD1 162329Z 15007KT 16/01 A2995 RMK A01 T01620008  RH  035%=      5-min Rain = 0
KPD1 162330Z 15007KT 16/01 A2995 RMK A01 T01620008  RH  035%=      5-min Rain = 0
KPD1 162331Z 16009KT 16/01 A2995 RMK A01 T01610008  RH  035%=      5-min Rain = 0
KPD1 162332Z 15008KT 16/01 A2995 RMK A01 T01610008  RH  035%=      5-min Rain = 0
KPD1 162333Z 16008KT 16/01 A2995 RMK A01 T01610008  RH  035%=      5-min Rain = 0
KPD1 162334Z 16008KT 16/01 A2995 RMK A01 T01600007  RH  035%=      5-min Rain = 0
KPD1 162335Z 16007KT 16/01 A2995 RMK A01 T01600008  RH  036%=      5-min Rain = 0
KPD1 162336Z 16008KT 16/01 A2995 RMK A01 T01590007  RH  036%=      5-min Rain = 0
KPD1 162337Z 16008KT 16/01 A2995 RMK A01 T01590007  RH  036%=      5-min Rain = 0
KPD1 162338Z 16008KT 16/01 A2995 RMK A01 T01590007  RH  036%=      5-min Rain = 0
KPD1 162339Z 16009KT 16/01 A2995 RMK A01 T01590008  RH  036%=      5-min Rain = 0
KPD1 162340Z 16010KT 16/01 A2995 RMK A01 T01590008  RH  036%=      5-min Rain = 0
KPD1 162341Z 15008KT 16/01 A2995 RMK A01 T01590008  RH  036%=      5-min Rain = 0
KPD1 162342Z 16010KT 16/01 A2995 RMK A01 T01590007  RH  036%=      5-min Rain = 0
KPD1 162343Z 16009KT 16/01 A2995 RMK A01 T01580007  RH  036%=      5-min Rain = 0
KPD1 162344Z 16010KT 16/01 A2995 RMK A01 T01590008  RH  036%=      5-min Rain = 0
KPD1 162345Z 16012KT 16/01 A2995 RMK A01 T01580007  RH  036%=      5-min Rain = 0
KPD1 162346Z 16011KT 16/01 A2996 RMK A01 T01590007  RH  036%=      5-min Rain = 0
KPD1 162347Z 16011KT 16/01 A2996 RMK A01 T01590007  RH  036%=      5-min Rain = 0
KPD1 162348Z 17011KT 16/01 A2996 RMK A01 T01590008  RH  036%=      5-min Rain = 0
KPD1 162349Z 17010KT 16/01 A2996 RMK A01 T01590007  RH  036%=      5-min Rain = 0
KPD1 162350Z 17010KT 16/01 A2996 RMK A01 T01590007  RH  036%=      5-min Rain = 0
KPD1 162351Z 17009KT 16/01 A2996 RMK A01 T01590007  RH  036%=      5-min Rain = 0
KPD1 162352Z 17009KT 16/01 A2996 RMK A01 T01590007  RH  036%=      5-min Rain = 0
KPD1 162353Z 17009KT 16/01 A2996 RMK A01 T01580007  RH  036%=      5-min Rain = 0
KPD1 162354Z 16009KT 16/01 A2996 RMK A01 T01580007  RH  036%=      5-min Rain = 0
KPD1 162355Z 17007KT 16/01 A2996 RMK A01 T01570007  RH  036%=      5-min Rain = 0
KPD1 162356Z 17008KT 16/01 A2996 RMK A01 T01570008  RH  036%=      5-min Rain = 0
KPD1 162357Z 17006KT 16/01 A2996 RMK A01 T01560007  RH  036%=      5-min Rain = 0
KPD1 162358Z 17008KT 16/01 A2996 RMK A01 T01550007  RH  037%=      5-min Rain = 0
KPD1 162359Z 16008KT 16/01 A2996 RMK A01 T01550008  RH  037%=      5-min Rain = 0
KPD1 170000Z 16010KT 15/01 A2996 RMK A01 T01540007  RH  037%=      5-min Rain = 0
KPD1 170001Z 18007KT 15/01 A2996 RMK A01 T01540008  RH  037%=      5-min Rain = 0
KPD1 170002Z 16007KT 15/01 A2996 RMK A01 T01530007  RH  037%=      5-min Rain = 0
KPD1 170003Z 17009KT 15/01 A2996 RMK A01 T01530008  RH  037%=      5-min Rain = 0
KPD1 170004Z 17008KT 15/01 A2996 RMK A01 T01530008  RH  037%=      5-min Rain = 0
KPD1 170005Z 17007KT 15/01 A2996 RMK A01 T01530007  RH  037%=      5-min Rain = 0
KPD1 170006Z 17009KT 15/01 A2996 RMK A01 T01520007  RH  037%=      5-min Rain = 0
KPD1 170007Z 16008KT 15/01 A2996 RMK A01 T01520007  RH  037%=      5-min Rain = 0
KPD1 170008Z 17008KT 15/01 A2996 RMK A01 T01520007  RH  037%=      5-min Rain = 0
KPD1 170009Z 17009KT 15/01 A2996 RMK A01 T01520007  RH  037%=      5-min Rain = 0
KPD1 170010Z 17009KT 15/01 A2996 RMK A01 T01510007  RH  037%=      5-min Rain = 0
KPD1 170011Z 17008KT 15/01 A2997 RMK A01 T01510006  RH  037%=      5-min Rain = 0
KPD1 170012Z 17007KT 15/01 A2997 RMK A01 T01510007  RH  037%=      5-min Rain = 0
KPD1 170013Z 17007KT 15/01 A2997 RMK A01 T01510007  RH  037%=      5-min Rain = 0
KPD1 170014Z 17008KT 15/01 A2997 RMK A01 T01500006  RH  038%=      5-min Rain = 0
KPD1 170015Z 17007KT 15/01 A2997 RMK A01 T01490006  RH  038%=      5-min Rain = 0
KPD1 170016Z 17008KT 15/01 A2997 RMK A01 T01490006  RH  038%=      5-min Rain = 0
KPD1 170017Z 18007KT 15/01 A2997 RMK A01 T01480006  RH  038%=      5-min Rain = 0
KPD1 170018Z 17008KT 15/01 A2997 RMK A01 T01480006  RH  038%=      5-min Rain = 0
KPD1 170019Z 17007KT 15/01 A2997 RMK A01 T01480006  RH  038%=      5-min Rain = 0
KPD1 170020Z 17007KT 15/01 A2997 RMK A01 T01480006  RH  038%=      5-min Rain = 0
KPD1 170021Z 17007KT 15/01 A2997 RMK A01 T01470006  RH  038%=      5-min Rain = 0
KPD1 170022Z 17006KT 15/01 A2997 RMK A01 T01470006  RH  038%=      5-min Rain = 0
KPD1 170023Z 17007KT 15/01 A2997 RMK A01 T01460005  RH  038%=      5-min Rain = 0
KPD1 170024Z 16007KT 15/01 A2997 RMK A01 T01450005  RH  038%=      5-min Rain = 0
KPD1 170025Z 16008KT 15/01 A2997 RMK A01 T01450005  RH  039%=      5-min Rain = 0
KPD1 170026Z 16008KT 15/01 A2997 RMK A01 T01450006  RH  039%=      5-min Rain = 0
KPD1 170027Z 16009KT 15/01 A2997 RMK A01 T01460006  RH  038%=      5-min Rain = 0
KPD1 170028Z 16009KT 15/01 A2997 RMK A01 T01460006  RH  038%=      5-min Rain = 0
KPD1 170029Z 17010KT 15/01 A2997 RMK A01 T01460006  RH  038%=      5-min Rain = 0
KPD1 170030Z 16010KT 15/01 A2997 RMK A01 T01460006  RH  038%=      5-min Rain = 0
KPD1 170031Z 17011KT 15/01 A2997 RMK A01 T01470006  RH  038%=      5-min Rain = 0
KPD1 170032Z 16010KT 15/01 A2997 RMK A01 T01480006  RH  038%=      5-min Rain = 0
KPD1 170033Z 16011KT 15/01 A2997 RMK A01 T01480006  RH  038%=      5-min Rain = 0
KPD1 170034Z 17010KT 15/01 A2997 RMK A01 T01490006  RH  038%=      5-min Rain = 0
KPD1 170035Z 17009KT 15/01 A2997 RMK A01 T01480006  RH  038%=      5-min Rain = 0
KPD1 170036Z 17009KT 15/01 A2997 RMK A01 T01480006  RH  038%=      5-min Rain = 0
KPD1 170037Z 17009KT 15/01 A2997 RMK A01 T01480006  RH  038%=      5-min Rain = 0
KPD1 170038Z 17011KT 15/01 A2997 RMK A01 T01480006  RH  038%=      5-min Rain = 0
KPD1 170039Z 17010KT 15/01 A2997 RMK A01 T01480006  RH  038%=      5-min Rain = 0
KPD1 170040Z 17008KT 15/01 A2997 RMK A01 T01470005  RH  038%=      5-min Rain = 0
KPD1 170041Z 17010KT 15/01 A2997 RMK A01 T01460005  RH  038%=      5-min Rain = 0
KPD1 170042Z 16009KT 15/01 A2997 RMK A01 T01460005  RH  038%=      5-min Rain = 0
KPD1 170043Z 17010KT 15/01 A2997 RMK A01 T01460005  RH  038%=      5-min Rain = 0
KPD1 170044Z 17009KT 15/01 A2997 RMK A01 T01460005  RH  038%=      5-min Rain = 0
KPD1 170045Z 17009KT 15/01 A2997 RMK A01 T01460005  RH  038%=      5-min Rain = 0
KPD1 170046Z 17009KT 15/01 A2997 RMK A01 T01450005  RH  038%=      5-min Rain = 0
KPD1 170047Z 17008KT 15/01 A2997 RMK A01 T01450005  RH  038%=      5-min Rain = 0
KPD1 170048Z 18008KT 15/01 A2997 RMK A01 T01450005  RH  038%=      5-min Rain = 0
KPD1 170049Z 17011KT 14/00 A2997 RMK A01 T01440004  RH  038%=      5-min Rain = 0
KPD1 170050Z 17008KT 15/01 A2997 RMK A01 T01450005  RH  038%=      5-min Rain = 0
KPD1 170051Z 17006KT 14/01 A2997 RMK A01 T01440005  RH  038%=      5-min Rain = 0
KPD1 170052Z 18006KT 14/01 A2997 RMK A01 T01440005  RH  039%=      5-min Rain = 0
KPD1 170053Z 17007KT 14/00 A2997 RMK A01 T01430004  RH  039%=      5-min Rain = 0
KPD1 170054Z 17008KT 14/01 A2997 RMK A01 T01430005  RH  039%=      5-min Rain = 0
KPD1 170055Z 17007KT 14/00 A2997 RMK A01 T01420004  RH  039%=      5-min Rain = 0
KPD1 170056Z 18008KT 14/00 A2997 RMK A01 T01420004  RH  039%=      5-min Rain = 0
KPD1 170057Z 17009KT 14/00 A2997 RMK A01 T01420004  RH  039%=      5-min Rain = 0
KPD1 170058Z 17008KT 14/00 A2997 RMK A01 T01420004  RH  039%=      5-min Rain = 0
KPD1 170059Z 17008KT 14/00 A2997 RMK A01 T01420004  RH  039%=      5-min Rain = 0
KPD1 170100Z 17008KT 14/00 A2997 RMK A01 T01420004  RH  039%=      5-min Rain = 0
KPD1 170101Z 18009KT 14/00 A2997 RMK A01 T01410004  RH  039%=      5-min Rain = 0
KPD1 170102Z 17008KT 14/00 A2997 RMK A01 T01410004  RH  039%=      5-min Rain = 0
KPD1 170103Z 17010KT 14/00 A2997 RMK A01 T01410004  RH  039%=      5-min Rain = 0
KPD1 170104Z 18010KT 14/00 A2997 RMK A01 T01420004  RH  039%=      5-min Rain = 0
KPD1 170105Z 17010KT 14/00 A2997 RMK A01 T01410004  RH  039%=      5-min Rain = 0
KPD1 170106Z 17010KT 14/00 A2997 RMK A01 T01420004  RH  039%=      5-min Rain = 0
KPD1 170107Z 17010KT 14/01 A2997 RMK A01 T01420005  RH  039%=      5-min Rain = 0
KPD1 170108Z 17009KT 14/00 A2997 RMK A01 T01420004  RH  039%=      5-min Rain = 0
KPD1 170109Z 17008KT 14/01 A2997 RMK A01 T01420005  RH  039%=      5-min Rain = 0
KPD1 170110Z 17009KT 14/01 A2997 RMK A01 T01410005  RH  039%=      5-min Rain = 0
KPD1 170111Z 17009KT 14/01 A2997 RMK A01 T01410005  RH  039%=      5-min Rain = 0
KPD1 170112Z 17009KT 14/00 A2997 RMK A01 T01410004  RH  039%=      5-min Rain = 0
KPD1 170113Z 17010KT 14/01 A2997 RMK A01 T01410005  RH  039%=      5-min Rain = 0
KPD1 170114Z 17008KT 14/00 A2997 RMK A01 T01410004  RH  039%=      5-min Rain = 0
KPD1 170115Z 17008KT 14/01 A2997 RMK A01 T01410005  RH  039%=      5-min Rain = 0
KPD1 170116Z 16010KT 14/01 A2997 RMK A01 T01400005  RH  040%=      5-min Rain = 0
KPD1 170117Z 17009KT 14/01 A2997 RMK A01 T01400005  RH  040%=      5-min Rain = 0
KPD1 170118Z 17009KT 14/01 A2997 RMK A01 T01400005  RH  040%=      5-min Rain = 0
KPD1 170119Z 17010KT 14/01 A2997 RMK A01 T01400005  RH  040%=      5-min Rain = 0
KPD1 170120Z 17010KT 14/01 A2997 RMK A01 T01390005  RH  040%=      5-min Rain = 0
KPD1 170121Z 17010KT 14/01 A2997 RMK A01 T01400005  RH  040%=      5-min Rain = 0
KPD1 170122Z 16010KT 14/01 A2997 RMK A01 T01390005  RH  040%=      5-min Rain = 0
KPD1 170123Z 17010KT 14/01 A2997 RMK A01 T01400005  RH  040%=      5-min Rain = 0
KPD1 170124Z 18011KT 14/01 A2997 RMK A01 T01400006  RH  040%=      5-min Rain = 0
KPD1 170125Z 17011KT 14/01 A2997 RMK A01 T01400006  RH  040%=      5-min Rain = 0
KPD1 170126Z 17011KT 14/01 A2997 RMK A01 T01400006  RH  040%=      5-min Rain = 0
KPD1 170127Z 17011KT 14/01 A2997 RMK A01 T01390005  RH  040%=      5-min Rain = 0
KPD1 170128Z 17013KT 14/01 A2997 RMK A01 T01390006  RH  040%=      5-min Rain = 0
KPD1 170129Z 17010KT 14/01 A2997 RMK A01 T01400006  RH  040%=      5-min Rain = 0
KPD1 170130Z 17011KT 14/01 A2997 RMK A01 T01390006  RH  040%=      5-min Rain = 0
KPD1 170131Z 17009KT 14/01 A2997 RMK A01 T01400006  RH  040%=      5-min Rain = 0
KPD1 170132Z 17008KT 14/01 A2997 RMK A01 T01390006  RH  040%=      5-min Rain = 0
KPD1 170133Z 17010KT 14/01 A2997 RMK A01 T01380006  RH  040%=      5-min Rain = 0
KPD1 170134Z 17009KT 14/01 A2997 RMK A01 T01370006  RH  041%=      5-min Rain = 0
KPD1 170135Z 17008KT 14/01 A2997 RMK A01 T01370006  RH  041%=      5-min Rain = 0
KPD1 170136Z 17009KT 14/01 A2997 RMK A01 T01370006  RH  041%=      5-min Rain = 0
KPD1 170137Z 17009G14KT 14/01 A2997 RMK A01 T01370006  RH  041%=      5-min Rain = 0
KPD1 170138Z 17011KT 14/01 A2997 RMK A01 T01360006  RH  041%=      5-min Rain = 0
KPD1 170139Z 17011KT 14/01 A2997 RMK A01 T01370007  RH  041%=      5-min Rain = 0
KPD1 170140Z 18011KT 14/01 A2997 RMK A01 T01370007  RH  041%=      5-min Rain = 0
KPD1 170141Z 17007KT 14/01 A2997 RMK A01 T01370007  RH  041%=      5-min Rain = 0
KPD1 170142Z 17011KT 14/01 A2997 RMK A01 T01360006  RH  041%=      5-min Rain = 0
KPD1 170143Z 17010KT 14/01 A2997 RMK A01 T01360007  RH  041%=      5-min Rain = 0
KPD1 170144Z 17009KT 14/01 A2997 RMK A01 T01350006  RH  041%=      5-min Rain = 0
KPD1 170145Z 18009KT 14/01 A2997 RMK A01 T01350007  RH  041%=      5-min Rain = 0
KPD1 170146Z 17008KT 14/01 A2997 RMK A01 T01350007  RH  042%=      5-min Rain = 0
KPD1 170147Z 18010KT 14/01 A2997 RMK A01 T01350007  RH  042%=      5-min Rain = 0
KPD1 170148Z 17009KT 13/01 A2997 RMK A01 T01340007  RH  042%=      5-min Rain = 0
KPD1 170149Z 17010KT 13/01 A2997 RMK A01 T01340006  RH  042%=      5-min Rain = 0
KPD1 170150Z 17010KT 13/01 A2997 RMK A01 T01340007  RH  042%=      5-min Rain = 0
KPD1 170151Z 17010KT 13/01 A2997 RMK A01 T01340007  RH  042%=      5-min Rain = 0
KPD1 170152Z 17009KT 13/01 A2997 RMK A01 T01330007  RH  042%=      5-min Rain = 0
KPD1 170153Z 17010KT 13/01 A2997 RMK A01 T01340007  RH  042%=      5-min Rain = 0
KPD1 170154Z 17009KT 13/01 A2997 RMK A01 T01340007  RH  042%=      5-min Rain = 0
KPD1 170155Z 17011KT 13/01 A2997 RMK A01 T01330007  RH  042%=      5-min Rain = 0
KPD1 170156Z 17009KT 13/01 A2997 RMK A01 T01330007  RH  042%=      5-min Rain = 0
KPD1 170157Z 17009KT 13/01 A2997 RMK A01 T01320007  RH  042%=      5-min Rain = 0
KPD1 170158Z 17008KT 13/01 A2997 RMK A01 T01320007  RH  042%=      5-min Rain = 0
KPD1 170159Z 17010KT 13/01 A2997 RMK A01 T01310007  RH  043%=      5-min Rain = 0
KPD1 170200Z 17008KT 13/01 A2997 RMK A01 T01310007  RH  043%=      5-min Rain = 0
KPD1 170201Z 17007KT 13/01 A2997 RMK A01 T01310007  RH  043%=      5-min Rain = 0
KPD1 170202Z 17008KT 13/01 A2997 RMK A01 T01300007  RH  043%=      5-min Rain = 0
KPD1 170203Z 17008KT 13/01 A2997 RMK A01 T01290007  RH  043%=      5-min Rain = 0
KPD1 170204Z 18009KT 13/01 A2997 RMK A01 T01300008  RH  043%=      5-min Rain = 0
KPD1 170205Z 17008KT 13/01 A2997 RMK A01 T01300008  RH  043%=      5-min Rain = 0
KPD1 170206Z 17009KT 13/01 A2997 RMK A01 T01300008  RH  043%=      5-min Rain = 0
KPD1 170207Z 18008KT 13/01 A2997 RMK A01 T01290008  RH  044%=      5-min Rain = 0
KPD1 170208Z 17007KT 13/01 A2997 RMK A01 T01290008  RH  044%=      5-min Rain = 0
KPD1 170209Z 17007KT 13/01 A2997 RMK A01 T01290009  RH  044%=      5-min Rain = 0
KPD1 170210Z 17008G14KT 13/01 A2997 RMK A01 T01280008  RH  044%=      5-min Rain = 0
KPD1 170211Z 18012KT 13/01 A2997 RMK A01 T01280008  RH  044%=      5-min Rain = 0
KPD1 170212Z 18008KT 13/01 A2997 RMK A01 T01290008  RH  044%=      5-min Rain = 0
KPD1 170213Z 18008KT 13/01 A2998 RMK A01 T01290008  RH  043%=      5-min Rain = 0
KPD1 170214Z 17008KT 13/01 A2998 RMK A01 T01290008  RH  043%=      5-min Rain = 0
KPD1 170215Z 18009KT 13/01 A2998 RMK A01 T01280007  RH  043%=      5-min Rain = 0
KPD1 170216Z 17009KT 13/01 A2998 RMK A01 T01280007  RH  044%=      5-min Rain = 0
KPD1 170217Z 18010KT 13/01 A2998 RMK A01 T01280007  RH  044%=      5-min Rain = 0
KPD1 170218Z 17009KT 13/01 A2998 RMK A01 T01280008  RH  044%=      5-min Rain = 0
KPD1 170219Z 17008KT 13/01 A2998 RMK A01 T01280008  RH  044%=      5-min Rain = 0
KPD1 170220Z 17008KT 13/01 A2998 RMK A01 T01270008  RH  044%=      5-min Rain = 0
KPD1 170221Z 17007KT 13/01 A2998 RMK A01 T01270007  RH  044%=      5-min Rain = 0
KPD1 170222Z 17009KT 13/01 A2998 RMK A01 T01260008  RH  044%=      5-min Rain = 0
KPD1 170223Z 17010KT 13/01 A2997 RMK A01 T01260009  RH  045%=      5-min Rain = 0
KPD1 170224Z 17009KT 13/01 A2997 RMK A01 T01260009  RH  045%=      5-min Rain = 0
KPD1 170225Z 17010KT 13/01 A2997 RMK A01 T01270010  RH  045%=      5-min Rain = 0
KPD1 170226Z 17012KT 13/01 A2997 RMK A01 T01270010  RH  045%=      5-min Rain = 0
KPD1 170227Z 17009KT 13/01 A2997 RMK A01 T01270010  RH  045%=      5-min Rain = 0
KPD1 170228Z 17009KT 13/01 A2997 RMK A01 T01270011  RH  045%=      5-min Rain = 0
KPD1 170229Z 17010KT 13/01 A2997 RMK A01 T01270011  RH  045%=      5-min Rain = 0
KPD1 170230Z 17009KT 13/01 A2997 RMK A01 T01270010  RH  045%=      5-min Rain = 0
KPD1 170231Z 17010KT 13/01 A2997 RMK A01 T01260010  RH  045%=      5-min Rain = 0
KPD1 170232Z 17009KT 13/01 A2997 RMK A01 T01260011  RH  045%=      5-min Rain = 0
KPD1 170233Z 18009KT 13/01 A2997 RMK A01 T01260011  RH  045%=      5-min Rain = 0
KPD1 170234Z 18009KT 13/01 A2997 RMK A01 T01260011  RH  045%=      5-min Rain = 0
KPD1 170235Z 17010KT 13/01 A2997 RMK A01 T01260011  RH  045%=      5-min Rain = 0
KPD1 170236Z 17012KT 13/01 A2997 RMK A01 T01260011  RH  046%=      5-min Rain = 0
KPD1 170237Z 17009KT 13/01 A2997 RMK A01 T01270012  RH  045%=      5-min Rain = 0
KPD1 170238Z 16009KT 13/01 A2997 RMK A01 T01260011  RH  045%=      5-min Rain = 0
KPD1 170239Z 17010KT 13/01 A2997 RMK A01 T01270011  RH  045%=      5-min Rain = 0
KPD1 170240Z 16010KT 13/01 A2997 RMK A01 T01270011  RH  045%=      5-min Rain = 0
KPD1 170241Z 18009KT 13/01 A2997 RMK A01 T01270012  RH  045%=      5-min Rain = 0
KPD1 170242Z 17007KT 13/01 A2997 RMK A01 T01260012  RH  046%=      5-min Rain = 0
KPD1 170243Z 18009KT 13/01 A2997 RMK A01 T01260011  RH  046%=      5-min Rain = 0
KPD1 170244Z 16009KT 13/01 A2997 RMK A01 T01250011  RH  046%=      5-min Rain = 0
KPD1 170245Z 17009KT 13/01 A2997 RMK A01 T01250012  RH  046%=      5-min Rain = 0
KPD1 170246Z 17007KT 12/01 A2997 RMK A01 T01240011  RH  046%=      5-min Rain = 0
KPD1 170247Z 17006KT 12/01 A2997 RMK A01 T01240011  RH  046%=      5-min Rain = 0
KPD1 170248Z 17006KT 12/01 A2997 RMK A01 T01230011  RH  046%=      5-min Rain = 0
KPD1 170249Z 17008KT 12/01 A2998 RMK A01 T01220011  RH  046%=      5-min Rain = 0
KPD1 170250Z 17008KT 12/01 A2998 RMK A01 T01220011  RH  047%=      5-min Rain = 0
KPD1 170251Z 18008KT 12/01 A2998 RMK A01 T01220011  RH  047%=      5-min Rain = 0
KPD1 170252Z 18009KT 12/01 A2998 RMK A01 T01210011  RH  047%=      5-min Rain = 0
KPD1 170253Z 18008KT 12/01 A2998 RMK A01 T01220012  RH  047%=      5-min Rain = 0
KPD1 170254Z 17009KT 12/01 A2998 RMK A01 T01220011  RH  047%=      5-min Rain = 0
KPD1 170255Z 17008KT 12/01 A2998 RMK A01 T01220011  RH  047%=      5-min Rain = 0
KPD1 170256Z 16007KT 12/01 A2998 RMK A01 T01220011  RH  047%=      5-min Rain = 0
KPD1 170257Z 16006KT 12/01 A2998 RMK A01 T01230012  RH  047%=      5-min Rain = 0
KPD1 170258Z 17008KT 12/01 A2998 RMK A01 T01220012  RH  047%=      5-min Rain = 0
KPD1 170259Z 17007KT 12/01 A2998 RMK A01 T01220011  RH  047%=      5-min Rain = 0
KPD1 170300Z 17007KT 12/01 A2998 RMK A01 T01220012  RH  047%=      5-min Rain = 0
KPD1 170301Z 17007KT 12/01 A2998 RMK A01 T01220012  RH  047%=      5-min Rain = 0
KPD1 170302Z 17007KT 12/01 A2998 RMK A01 T01220012  RH  047%=      5-min Rain = 0
KPD1 170303Z 17007KT 12/01 A2998 RMK A01 T01220012  RH  047%=      5-min Rain = 0
KPD1 170304Z 18006KT 12/01 A2998 RMK A01 T01220012  RH  047%=      5-min Rain = 0
KPD1 170305Z 17008KT 12/01 A2998 RMK A01 T01220012  RH  047%=      5-min Rain = 0
KPD1 170306Z 18007KT 12/01 A2998 RMK A01 T01210012  RH  047%=      5-min Rain = 0
KPD1 170307Z 18007KT 12/01 A2998 RMK A01 T01210012  RH  047%=      5-min Rain = 0
KPD1 170308Z 18008KT 12/01 A2998 RMK A01 T01200012  RH  047%=      5-min Rain = 0
KPD1 170309Z 18007KT 12/01 A2998 RMK A01 T01200012  RH  047%=      5-min Rain = 0
KPD1 170310Z 18008KT 12/01 A2999 RMK A01 T01200012  RH  047%=      5-min Rain = 0
KPD1 170311Z 18009KT 12/01 A2998 RMK A01 T01190011  RH  047%=      5-min Rain = 0
KPD1 170312Z 18007KT 12/01 A2998 RMK A01 T01200012  RH  048%=      5-min Rain = 0
KPD1 170313Z 18008KT 12/01 A2998 RMK A01 T01200011  RH  047%=      5-min Rain = 0
KPD1 170314Z 18007KT 12/01 A2998 RMK A01 T01190011  RH  048%=      5-min Rain = 0
KPD1 170315Z 18006KT 12/01 A2998 RMK A01 T01190011  RH  048%=      5-min Rain = 0
KPD1 170316Z 18005KT 12/01 A2998 RMK A01 T01180011  RH  048%=      5-min Rain = 0
KPD1 170317Z 18006KT 12/01 A2999 RMK A01 T01170011  RH  048%=      5-min Rain = 0
KPD1 170318Z 18008KT 12/01 A2999 RMK A01 T01170011  RH  048%=      5-min Rain = 0
KPD1 170319Z 17005KT 12/01 A2998 RMK A01 T01160011  RH  048%=      5-min Rain = 0
KPD1 170320Z 18004KT 12/01 A2999 RMK A01 T01170011  RH  048%=      5-min Rain = 0
KPD1 170321Z 19006KT 12/01 A2999 RMK A01 T01160011  RH  048%=      5-min Rain = 0
KPD1 170322Z 18006KT 12/01 A2999 RMK A01 T01160011  RH  049%=      5-min Rain = 0
KPD1 170323Z 18006KT 12/01 A2999 RMK A01 T01150011  RH  049%=      5-min Rain = 0
KPD1 170324Z 19006KT 11/01 A2999 RMK A01 T01140010  RH  049%=      5-min Rain = 0
KPD1 170325Z 18004KT 11/01 A2999 RMK A01 T01140010  RH  049%=      5-min Rain = 0
KPD1 170326Z 18005KT 11/01 A2999 RMK A01 T01130010  RH  049%=      5-min Rain = 0
KPD1 170327Z 19005KT 11/01 A2999 RMK A01 T01120010  RH  049%=      5-min Rain = 0
KPD1 170328Z 18006KT 11/01 A2999 RMK A01 T01110010  RH  050%=      5-min Rain = 0
KPD1 170329Z 18005KT 11/01 A2999 RMK A01 T01100010  RH  050%=      5-min Rain = 0
KPD1 170330Z 19006KT 11/01 A2999 RMK A01 T01090009  RH  050%=      5-min Rain = 0
KPD1 170331Z 19005KT 11/01 A2999 RMK A01 T01090010  RH  050%=      5-min Rain = 0
KPD1 170332Z 19006KT 11/01 A2999 RMK A01 T01080009  RH  051%=      5-min Rain = 0
KPD1 170333Z 18006KT 11/01 A2999 RMK A01 T01080010  RH  051%=      5-min Rain = 0
KPD1 170334Z 18006KT 11/01 A2999 RMK A01 T01070010  RH  051%=      5-min Rain = 0
KPD1 170335Z 19007KT 11/01 A2999 RMK A01 T01070010  RH  051%=      5-min Rain = 0
KPD1 170336Z 19007KT 11/01 A2999 RMK A01 T01070010  RH  051%=      5-min Rain = 0
KPD1 170337Z 19007KT 11/01 A2999 RMK A01 T01070010  RH  051%=      5-min Rain = 0
KPD1 170338Z 18008KT 11/01 A2999 RMK A01 T01070010  RH  051%=      5-min Rain = 0
KPD1 170339Z 18007KT 11/01 A2999 RMK A01 T01070011  RH  051%=      5-min Rain = 0
KPD1 170340Z 19007KT 11/01 A2999 RMK A01 T01060010  RH  051%=      5-min Rain = 0
KPD1 170341Z 18007KT 11/01 A2999 RMK A01 T01060011  RH  052%=      5-min Rain = 0
KPD1 170342Z 18007KT 11/01 A2998 RMK A01 T01060011  RH  052%=      5-min Rain = 0
KPD1 170343Z 18007KT 11/01 A2998 RMK A01 T01060011  RH  052%=      5-min Rain = 0
KPD1 170344Z 18007KT 11/01 A2998 RMK A01 T01070010  RH  051%=      5-min Rain = 0
KPD1 170345Z 17008KT 11/01 A2998 RMK A01 T01070010  RH  051%=      5-min Rain = 0
KPD1 170346Z 18008KT 11/01 A2998 RMK A01 T01070011  RH  051%=      5-min Rain = 0
KPD1 170347Z 18010KT 11/01 A2998 RMK A01 T01080011  RH  051%=      5-min Rain = 0
KPD1 170348Z 17008KT 11/01 A2998 RMK A01 T01080011  RH  051%=      5-min Rain = 0
KPD1 170349Z 17009KT 11/01 A2998 RMK A01 T01090011  RH  051%=      5-min Rain = 0
KPD1 170350Z 18008KT 11/01 A2998 RMK A01 T01090011  RH  051%=      5-min Rain = 0
KPD1 170351Z 18005KT 11/01 A2998 RMK A01 T01090011  RH  051%=      5-min Rain = 0
KPD1 170352Z 17006KT 11/01 A2998 RMK A01 T01090011  RH  051%=      5-min Rain = 0
KPD1 170353Z 18007KT 11/01 A2998 RMK A01 T01080010  RH  051%=      5-min Rain = 0
KPD1 170354Z 18007KT 11/01 A2998 RMK A01 T01080010  RH  051%=      5-min Rain = 0
KPD1 170355Z 18007KT 11/01 A2998 RMK A01 T01080010  RH  051%=      5-min Rain = 0
KPD1 170356Z 18007KT 11/01 A2998 RMK A01 T01070010  RH  051%=      5-min Rain = 0
KPD1 170357Z 17006KT 11/01 A2998 RMK A01 T01070010  RH  051%=      5-min Rain = 0
KPD1 170358Z 17007KT 11/01 A2998 RMK A01 T01060010  RH  051%=      5-min Rain = 0
KPD1 170359Z 18005KT 11/01 A2998 RMK A01 T01060009  RH  051%=      5-min Rain = 0
KPD1 170400Z 18004KT 11/01 A2998 RMK A01 T01060010  RH  051%=      5-min Rain = 0
KPD1 170401Z 18004KT 11/01 A2998 RMK A01 T01050009  RH  051%=      5-min Rain = 0
KPD1 170402Z 17003KT 11/01 A2998 RMK A01 T01050009  RH  051%=      5-min Rain = 0
KPD1 170403Z 17004KT 10/01 A2998 RMK A01 T01040009  RH  052%=      5-min Rain = 0
KPD1 170404Z 19004KT 10/01 A2998 RMK A01 T01030009  RH  052%=      5-min Rain = 0
KPD1 170405Z 18004KT 10/01 A2998 RMK A01 T01030009  RH  052%=      5-min Rain = 0
KPD1 170406Z 17005KT 10/01 A2998 RMK A01 T01020009  RH  052%=      5-min Rain = 0
KPD1 170407Z 18005KT 10/01 A2998 RMK A01 T01020009  RH  052%=      5-min Rain = 0
KPD1 170408Z 18005KT 10/01 A2998 RMK A01 T01030009  RH  052%=      5-min Rain = 0
KPD1 170409Z 18005KT 10/01 A2998 RMK A01 T01020008  RH  052%=      5-min Rain = 0
KPD1 170410Z 19004KT 10/01 A2998 RMK A01 T01020009  RH  052%=      5-min Rain = 0
KPD1 170411Z 19006KT 10/01 A2998 RMK A01 T01020008  RH  052%=      5-min Rain = 0
KPD1 170412Z 19005KT 10/01 A2998 RMK A01 T01020009  RH  052%=      5-min Rain = 0
KPD1 170413Z 19004KT 10/01 A2998 RMK A01 T01030009  RH  052%=      5-min Rain = 0
KPD1 170414Z 19005KT 10/01 A2998 RMK A01 T01040009  RH  052%=      5-min Rain = 0
KPD1 170415Z 19006KT 11/01 A2998 RMK A01 T01050009  RH  052%=      5-min Rain = 0
KPD1 170416Z 19005KT 11/01 A2998 RMK A01 T01050009  RH  051%=      5-min Rain = 0
KPD1 170417Z 19004KT 11/01 A2998 RMK A01 T01050009  RH  051%=      5-min Rain = 0
KPD1 170418Z 19005KT 11/01 A2998 RMK A01 T01050009  RH  051%=      5-min Rain = 0
KPD1 170419Z 19005KT 11/01 A2998 RMK A01 T01050009  RH  051%=      5-min Rain = 0
KPD1 170420Z 19007KT 10/01 A2998 RMK A01 T01040009  RH  051%=      5-min Rain = 0
KPD1 170421Z 19007KT 10/01 A2998 RMK A01 T01040008  RH  051%=      5-min Rain = 0
KPD1 170422Z 18007KT 11/01 A2998 RMK A01 T01050009  RH  051%=      5-min Rain = 0
KPD1 170423Z 19007KT 11/01 A2998 RMK A01 T01050009  RH  051%=      5-min Rain = 0
KPD1 170424Z 19007KT 11/01 A2998 RMK A01 T01050009  RH  051%=      5-min Rain = 0
KPD1 170425Z 18007KT 11/01 A2998 RMK A01 T01060009  RH  051%=      5-min Rain = 0
KPD1 170426Z 19006KT 11/01 A2998 RMK A01 T01060009  RH  051%=      5-min Rain = 0
KPD1 170427Z 18006KT 11/01 A2998 RMK A01 T01050009  RH  051%=      5-min Rain = 0
KPD1 170428Z 18007KT 11/01 A2998 RMK A01 T01060009  RH  051%=      5-min Rain = 0
KPD1 170429Z 19006KT 11/01 A2998 RMK A01 T01060009  RH  051%=      5-min Rain = 0
KPD1 170430Z 18005KT 11/01 A2998 RMK A01 T01060009  RH  051%=      5-min Rain = 0
KPD1 170431Z 19005KT 11/01 A2999 RMK A01 T01060009  RH  051%=      5-min Rain = 0
KPD1 170432Z 19006KT 11/01 A2999 RMK A01 T01060009  RH  051%=      5-min Rain = 0
KPD1 170433Z 19006KT 11/01 A2999 RMK A01 T01050009  RH  051%=      5-min Rain = 0
KPD1 170434Z 18006KT 11/01 A2999 RMK A01 T01050009  RH  051%=      5-min Rain = 0
KPD1 170435Z 20006KT 10/01 A2999 RMK A01 T01040008  RH  051%=      5-min Rain = 0
KPD1 170436Z 20006KT 10/01 A2999 RMK A01 T01040008  RH  052%=      5-min Rain = 0
KPD1 170437Z 20005KT 10/01 A2999 RMK A01 T01030009  RH  052%=      5-min Rain = 0
KPD1 170438Z 19006KT 10/01 A2999 RMK A01 T01020008  RH  052%=      5-min Rain = 0
KPD1 170439Z 20006KT 10/01 A2999 RMK A01 T01020008  RH  052%=      5-min Rain = 0
KPD1 170440Z 20005KT 10/01 A2999 RMK A01 T01020008  RH  052%=      5-min Rain = 0
KPD1 170441Z 21005KT 10/01 A2999 RMK A01 T01020008  RH  052%=      5-min Rain = 0
KPD1 170442Z 21005KT 10/01 A2999 RMK A01 T01010008  RH  052%=      5-min Rain = 0
KPD1 170443Z 21005KT 10/01 A2999 RMK A01 T01010008  RH  053%=      5-min Rain = 0
KPD1 170444Z 21005KT 10/01 A2999 RMK A01 T01000008  RH  053%=      5-min Rain = 0
KPD1 170445Z 20005KT 10/01 A2999 RMK A01 T01000008  RH  053%=      5-min Rain = 0
KPD1 170446Z 20004KT 10/01 A2999 RMK A01 T00990008  RH  053%=      5-min Rain = 0
KPD1 170447Z 19004KT 10/01 A2999 RMK A01 T01000008  RH  053%=      5-min Rain = 0
KPD1 170448Z 19004KT 10/01 A2999 RMK A01 T00990008  RH  053%=      5-min Rain = 0
KPD1 170449Z 18004KT 10/01 A2999 RMK A01 T00990008  RH  053%=      5-min Rain = 0
KPD1 170450Z 19004KT 10/01 A2999 RMK A01 T00980007  RH  053%=      5-min Rain = 0
KPD1 170451Z 20004KT 10/01 A2999 RMK A01 T00980007  RH  053%=      5-min Rain = 0
KPD1 170452Z 20003KT 10/01 A2999 RMK A01 T00980007  RH  053%=      5-min Rain = 0
KPD1 170453Z 20003KT 10/01 A2999 RMK A01 T00970007  RH  054%=      5-min Rain = 0
KPD1 170454Z 21003KT 10/01 A2999 RMK A01 T00960007  RH  054%=      5-min Rain = 0
KPD1 170455Z 20003KT 10/01 A2999 RMK A01 T00960007  RH  054%=      5-min Rain = 0
KPD1 170456Z 20003KT 10/01 A2999 RMK A01 T00960007  RH  054%=      5-min Rain = 0
KPD1 170457Z 20003KT 10/01 A2999 RMK A01 T00950007  RH  054%=      5-min Rain = 0
KPD1 170458Z 20004KT 10/01 A2999 RMK A01 T00950007  RH  054%=      5-min Rain = 0
KPD1 170459Z 20004KT 09/01 A2999 RMK A01 T00940007  RH  054%=      5-min Rain = 0
KPD1 170500Z 20003KT 09/01 A2999 RMK A01 T00940007  RH  055%=      5-min Rain = 0
KPD1 170501Z 20003KT 09/01 A2999 RMK A01 T00930007  RH  055%=      5-min Rain = 0
KPD1 170502Z 19002KT 09/01 A2999 RMK A01 T00920007  RH  055%=      5-min Rain = 0
KPD1 170503Z 21002KT 09/01 A30 RMK A01 T00920007  RH  055%=      5-min Rain = 0
KPD1 170504Z 20003KT 09/01 A30 RMK A01 T00920007  RH  055%=      5-min Rain = 0
KPD1 170505Z 20003KT 09/01 A30 RMK A01 T00920007  RH  055%=      5-min Rain = 0
KPD1 170506Z 20003KT 09/01 A30 RMK A01 T00920007  RH  055%=      5-min Rain = 0
KPD1 170507Z 20002KT 09/01 A30 RMK A01 T00920007  RH  055%=      5-min Rain = 0
KPD1 170508Z 22002KT 09/01 A30 RMK A01 T00920007  RH  055%=      5-min Rain = 0
KPD1 170509Z 22002KT 09/01 A30 RMK A01 T00910006  RH  055%=      5-min Rain = 0
KPD1 170510Z 24002KT 09/01 A30 RMK A01 T00920007  RH  055%=      5-min Rain = 0
KPD1 170511Z 25002KT 09/01 A30 RMK A01 T00910007  RH  055%=      5-min Rain = 0
KPD1 170512Z 25002KT 09/01 A30 RMK A01 T00910006  RH  055%=      5-min Rain = 0
KPD1 170513Z 25001KT 09/01 A30 RMK A01 T00920006  RH  055%=      5-min Rain = 0
KPD1 170514Z 27002KT 09/01 A30 RMK A01 T00920006  RH  055%=      5-min Rain = 0
KPD1 170515Z 27002KT 09/01 A30 RMK A01 T00920006  RH  055%=      5-min Rain = 0
KPD1 170516Z 27002KT 09/01 A30 RMK A01 T00920006  RH  055%=      5-min Rain = 0
KPD1 170517Z 26003KT 09/01 A30 RMK A01 T00920006  RH  055%=      5-min Rain = 0
KPD1 170518Z 27003KT 09/01 A30 RMK A01 T00920005  RH  055%=      5-min Rain = 0
KPD1 170519Z 27003KT 09/01 A30 RMK A01 T00920005  RH  055%=      5-min Rain = 0
KPD1 170520Z 28002KT 09/01 A30 RMK A01 T00920005  RH  055%=      5-min Rain = 0
KPD1 170521Z 29002KT 09/01 A30 RMK A01 T00920005  RH  054%=      5-min Rain = 0
KPD1 170522Z 33002KT 09/01 A30 RMK A01 T00920005  RH  055%=      5-min Rain = 0
KPD1 170523Z 34003KT 09/01 A30 RMK A01 T00920005  RH  055%=      5-min Rain = 0
KPD1 170524Z 34004KT 09/01 A30 RMK A01 T00920005  RH  055%=      5-min Rain = 0
KPD1 170525Z 35004KT 09/01 A30 RMK A01 T00910006  RH  055%=      5-min Rain = 0
KPD1 170526Z 35004KT 09/01 A30 RMK A01 T00910006  RH  055%=      5-min Rain = 0
KPD1 170527Z 35004KT 09/01 A30 RMK A01 T00900006  RH  056%=      5-min Rain = 0
KPD1 170528Z 35005KT 09/01 A30 RMK A01 T00890006  RH  056%=      5-min Rain = 0
KPD1 170529Z 35005KT 09/01 A30 RMK A01 T00890007  RH  056%=      5-min Rain = 0
KPD1 170530Z 35006KT 09/01 A30 RMK A01 T00880007  RH  057%=      5-min Rain = 0
KPD1 170531Z 35007KT 09/01 A30 RMK A01 T00870007  RH  057%=      5-min Rain = 0
KPD1 170532Z 35007KT 09/01 A30 RMK A01 T00860007  RH  058%=      5-min Rain = 0
KPD1 170533Z 34008KT 09/01 A30 RMK A01 T00850008  RH  058%=      5-min Rain = 0
KPD1 170534Z 34008KT 09/01 A30 RMK A01 T00860008  RH  058%=      5-min Rain = 0
KPD1 170535Z 34008KT 09/01 A30 RMK A01 T00870008  RH  058%=      5-min Rain = 0
KPD1 170536Z 34008KT 09/01 A30 RMK A01 T00880008  RH  057%=      5-min Rain = 0
KPD1 170537Z 34007KT 09/01 A30 RMK A01 T00890008  RH  057%=      5-min Rain = 0
KPD1 170538Z 33006KT 09/01 A30 RMK A01 T00900008  RH  056%=      5-min Rain = 0
KPD1 170539Z 33006KT 09/01 A30 RMK A01 T00910008  RH  056%=      5-min Rain = 0
KPD1 170540Z 34006KT 09/01 A30 RMK A01 T00920008  RH  056%=      5-min Rain = 0
KPD1 170541Z 34007KT 09/01 A30 RMK A01 T00920008  RH  055%=      5-min Rain = 0
KPD1 170542Z 35006KT 09/01 A30 RMK A01 T00930008  RH  055%=      5-min Rain = 0
KPD1 170543Z 34006KT 09/01 A30 RMK A01 T00930008  RH  055%=      5-min Rain = 0
KPD1 170544Z 34006KT 09/01 A30 RMK A01 T00930008  RH  055%=      5-min Rain = 0
KPD1 170545Z 34005KT 09/01 A30 RMK A01 T00940007  RH  055%=      5-min Rain = 0
KPD1 170546Z 34005KT 09/01 A30 RMK A01 T00940007  RH  055%=      5-min Rain = 0
KPD1 170547Z 33005KT 09/01 A30 RMK A01 T00940007  RH  055%=      5-min Rain = 0
KPD1 170548Z 33005KT 09/01 A30 RMK A01 T00940007  RH  054%=      5-min Rain = 0
KPD1 170549Z 34005KT 09/01 A30 RMK A01 T00940007  RH  054%=      5-min Rain = 0
KPD1 170550Z 34006KT 09/01 A30 RMK A01 T00940007  RH  054%=      5-min Rain = 0
KPD1 170551Z 34007KT 09/01 A3001 RMK A01 T00940007  RH  054%=      5-min Rain = 0
KPD1 170552Z 34006KT 09/01 A30 RMK A01 T00940007  RH  054%=      5-min Rain = 0
KPD1 170553Z 35005KT 09/01 A30 RMK A01 T00940007  RH  055%=      5-min Rain = 0
KPD1 170554Z 36006KT 09/01 A30 RMK A01 T00940007  RH  055%=      5-min Rain = 0
KPD1 170555Z 34006KT 09/01 A30 RMK A01 T00940008  RH  055%=      5-min Rain = 0
KPD1 170556Z 35005KT 09/01 A30 RMK A01 T00940007  RH  055%=      5-min Rain = 0
KPD1 170557Z 34006KT 09/01 A30 RMK A01 T00940008  RH  055%=      5-min Rain = 0
KPD1 170558Z 34005KT 09/01 A30 RMK A01 T00930007  RH  055%=      5-min Rain = 0
KPD1 170559Z 34006KT 09/01 A30 RMK A01 T00930008  RH  055%=      5-min Rain = 0

Page generated in 0.0804 seconds.